<?xml version="1.0" encoding="UTF-8" standalone="no" ?>
<gpx xmlns="http://www.topografix.com/GPX/1/1" xmlns:xsi="http://www.w3.org/2001/XMLSchema-instance" xsi:schemaLocation="http://www.topografix.com/GPX/1/1 http://www.topografix.com/GPX/1/1/gpx.xsd" version="1.1" creator="VisuGPX - https://www.visugpx.com">
  <metadata>
    <name>Sonnant d'uriage-revel</name>
    <desc><![CDATA[File with points/tracks from Locus Map/3.43.1]]></desc>
  </metadata>
  <trk>
    <name><![CDATA[2020-02-08 15:32:37]]></name>
    <desc><![CDATA[Combe gourmande]]></desc>
    <extensions>
      <line xmlns="http://www.topografix.com/GPX/gpx_style/0/2">
        <color>0000FF</color>
        <opacity>0.59</opacity>
        <width>6.0</width>
      </line>
    </extensions>
    <trkseg>
      <trkpt lat="45.18381" lon="5.8738">
        <ele>698.34</ele>
        <time>2020-02-08T14:32:50.000Z</time>
      </trkpt>
      <trkpt lat="45.18392" lon="5.8738">
        <ele>693.89</ele>
        <time>2020-02-08T14:33:25.000Z</time>
      </trkpt>
      <trkpt lat="45.18396" lon="5.8735">
        <ele>692.23</ele>
        <time>2020-02-08T14:33:30.000Z</time>
      </trkpt>
      <trkpt lat="45.1839" lon="5.87312">
        <ele>689.2</ele>
        <time>2020-02-08T14:33:35.000Z</time>
      </trkpt>
      <trkpt lat="45.18391" lon="5.8727">
        <ele>685.94</ele>
        <time>2020-02-08T14:33:40.000Z</time>
      </trkpt>
      <trkpt lat="45.1841" lon="5.87225">
        <ele>681.36</ele>
        <time>2020-02-08T14:33:45.000Z</time>
      </trkpt>
      <trkpt lat="45.18435" lon="5.87192">
        <ele>676.98</ele>
        <time>2020-02-08T14:33:50.000Z</time>
      </trkpt>
      <trkpt lat="45.18436" lon="5.87176">
        <ele>676.5</ele>
        <time>2020-02-08T14:33:55.000Z</time>
      </trkpt>
      <trkpt lat="45.18416" lon="5.87157">
        <ele>672.11</ele>
        <time>2020-02-08T14:34:00.000Z</time>
      </trkpt>
      <trkpt lat="45.18414" lon="5.87116">
        <ele>668.91</ele>
        <time>2020-02-08T14:34:05.000Z</time>
      </trkpt>
      <trkpt lat="45.18457" lon="5.87096">
        <ele>663.27</ele>
        <time>2020-02-08T14:34:10.000Z</time>
      </trkpt>
      <trkpt lat="45.18492" lon="5.8708">
        <ele>658.89</ele>
        <time>2020-02-08T14:34:15.000Z</time>
      </trkpt>
      <trkpt lat="45.18516" lon="5.87054">
        <ele>657.68</ele>
        <time>2020-02-08T14:34:20.000Z</time>
      </trkpt>
      <trkpt lat="45.18558" lon="5.87053">
        <ele>652.21</ele>
        <time>2020-02-08T14:34:25.000Z</time>
      </trkpt>
      <trkpt lat="45.18585" lon="5.87001">
        <ele>649.65</ele>
        <time>2020-02-08T14:34:30.000Z</time>
      </trkpt>
      <trkpt lat="45.18594" lon="5.8693">
        <ele>643.34</ele>
        <time>2020-02-08T14:34:35.000Z</time>
      </trkpt>
      <trkpt lat="45.1858" lon="5.86879">
        <ele>643.65</ele>
        <time>2020-02-08T14:34:40.000Z</time>
      </trkpt>
      <trkpt lat="45.18598" lon="5.8687">
        <ele>639.99</ele>
        <time>2020-02-08T14:34:45.000Z</time>
      </trkpt>
      <trkpt lat="45.1862" lon="5.86915">
        <ele>636.56</ele>
        <time>2020-02-08T14:34:50.000Z</time>
      </trkpt>
      <trkpt lat="45.18652" lon="5.86918">
        <ele>630.95</ele>
        <time>2020-02-08T14:34:55.000Z</time>
      </trkpt>
      <trkpt lat="45.18671" lon="5.8686">
        <ele>629.18</ele>
        <time>2020-02-08T14:35:00.000Z</time>
      </trkpt>
      <trkpt lat="45.18696" lon="5.86795">
        <ele>626.46</ele>
        <time>2020-02-08T14:35:05.000Z</time>
      </trkpt>
      <trkpt lat="45.18718" lon="5.86757">
        <ele>621.24</ele>
        <time>2020-02-08T14:35:10.000Z</time>
      </trkpt>
      <trkpt lat="45.18723" lon="5.86741">
        <ele>617.49</ele>
        <time>2020-02-08T14:35:57.000Z</time>
      </trkpt>
      <trkpt lat="45.18741" lon="5.8671">
        <ele>614.52</ele>
        <time>2020-02-08T14:36:02.000Z</time>
      </trkpt>
      <trkpt lat="45.18768" lon="5.86674">
        <ele>611.25</ele>
        <time>2020-02-08T14:36:07.000Z</time>
      </trkpt>
      <trkpt lat="45.18794" lon="5.86619">
        <ele>609.2</ele>
        <time>2020-02-08T14:36:12.000Z</time>
      </trkpt>
      <trkpt lat="45.18789" lon="5.86545">
        <ele>604.22</ele>
        <time>2020-02-08T14:36:17.000Z</time>
      </trkpt>
      <trkpt lat="45.18783" lon="5.86474">
        <ele>599.31</ele>
        <time>2020-02-08T14:36:22.000Z</time>
      </trkpt>
      <trkpt lat="45.18829" lon="5.86441">
        <ele>598.95</ele>
        <time>2020-02-08T14:36:27.000Z</time>
      </trkpt>
      <trkpt lat="45.18877" lon="5.86391">
        <ele>592.39</ele>
        <time>2020-02-08T14:36:32.000Z</time>
      </trkpt>
      <trkpt lat="45.18907" lon="5.86322">
        <ele>587.27</ele>
        <time>2020-02-08T14:36:37.000Z</time>
      </trkpt>
      <trkpt lat="45.18928" lon="5.86237">
        <ele>583.38</ele>
        <time>2020-02-08T14:36:42.000Z</time>
      </trkpt>
      <trkpt lat="45.18945" lon="5.86146">
        <ele>580.8</ele>
        <time>2020-02-08T14:36:47.000Z</time>
      </trkpt>
      <trkpt lat="45.18956" lon="5.86056">
        <ele>573.06</ele>
        <time>2020-02-08T14:36:52.000Z</time>
      </trkpt>
      <trkpt lat="45.18968" lon="5.85966">
        <ele>566.38</ele>
        <time>2020-02-08T14:36:57.000Z</time>
      </trkpt>
      <trkpt lat="45.18961" lon="5.8588">
        <ele>560.84</ele>
        <time>2020-02-08T14:37:02.000Z</time>
      </trkpt>
      <trkpt lat="45.18959" lon="5.85789">
        <ele>558.86</ele>
        <time>2020-02-08T14:37:07.000Z</time>
      </trkpt>
      <trkpt lat="45.1895" lon="5.85694">
        <ele>551.78</ele>
        <time>2020-02-08T14:37:12.000Z</time>
      </trkpt>
      <trkpt lat="45.18961" lon="5.85615">
        <ele>541.12</ele>
        <time>2020-02-08T14:37:17.000Z</time>
      </trkpt>
      <trkpt lat="45.18995" lon="5.85545">
        <ele>536.9</ele>
        <time>2020-02-08T14:37:22.000Z</time>
      </trkpt>
      <trkpt lat="45.19048" lon="5.85503">
        <ele>532.87</ele>
        <time>2020-02-08T14:37:27.000Z</time>
      </trkpt>
      <trkpt lat="45.19107" lon="5.85463">
        <ele>526.81</ele>
        <time>2020-02-08T14:37:32.000Z</time>
      </trkpt>
      <trkpt lat="45.19162" lon="5.85408">
        <ele>519.15</ele>
        <time>2020-02-08T14:37:37.000Z</time>
      </trkpt>
      <trkpt lat="45.19218" lon="5.85371">
        <ele>513.83</ele>
        <time>2020-02-08T14:37:42.000Z</time>
      </trkpt>
      <trkpt lat="45.19279" lon="5.85349">
        <ele>511.09</ele>
        <time>2020-02-08T14:37:47.000Z</time>
      </trkpt>
      <trkpt lat="45.19335" lon="5.85335">
        <ele>507.06</ele>
        <time>2020-02-08T14:37:52.000Z</time>
      </trkpt>
      <trkpt lat="45.19372" lon="5.85375">
        <ele>507.39</ele>
        <time>2020-02-08T14:37:57.000Z</time>
      </trkpt>
      <trkpt lat="45.1939" lon="5.8536">
        <ele>508.88</ele>
        <time>2020-02-08T14:38:02.000Z</time>
      </trkpt>
      <trkpt lat="45.19384" lon="5.85349">
        <ele>505.64</ele>
        <time>2020-02-08T14:38:07.000Z</time>
      </trkpt>
      <trkpt lat="45.1938" lon="5.85335">
        <ele>507.82</ele>
        <time>2020-02-08T14:38:15.000Z</time>
      </trkpt>
      <trkpt lat="45.19377" lon="5.85294">
        <ele>503.74</ele>
        <time>2020-02-08T14:38:20.000Z</time>
      </trkpt>
      <trkpt lat="45.19382" lon="5.85243">
        <ele>501.87</ele>
        <time>2020-02-08T14:38:25.000Z</time>
      </trkpt>
      <trkpt lat="45.19412" lon="5.85184">
        <ele>492.53</ele>
        <time>2020-02-08T14:38:30.000Z</time>
      </trkpt>
      <trkpt lat="45.19463" lon="5.85186">
        <ele>488.3</ele>
        <time>2020-02-08T14:38:35.000Z</time>
      </trkpt>
      <trkpt lat="45.19474" lon="5.8512">
        <ele>484.97</ele>
        <time>2020-02-08T14:38:40.000Z</time>
      </trkpt>
      <trkpt lat="45.19492" lon="5.85051">
        <ele>481.27</ele>
        <time>2020-02-08T14:38:45.000Z</time>
      </trkpt>
      <trkpt lat="45.19541" lon="5.85009">
        <ele>474.46</ele>
        <time>2020-02-08T14:38:50.000Z</time>
      </trkpt>
      <trkpt lat="45.19595" lon="5.8497">
        <ele>470.73</ele>
        <time>2020-02-08T14:38:55.000Z</time>
      </trkpt>
      <trkpt lat="45.19648" lon="5.84914">
        <ele>465.89</ele>
        <time>2020-02-08T14:39:00.000Z</time>
      </trkpt>
      <trkpt lat="45.19695" lon="5.84861">
        <ele>461.53</ele>
        <time>2020-02-08T14:39:05.000Z</time>
      </trkpt>
      <trkpt lat="45.19755" lon="5.84823">
        <ele>459.85</ele>
        <time>2020-02-08T14:39:10.000Z</time>
      </trkpt>
      <trkpt lat="45.19813" lon="5.84784">
        <ele>451.15</ele>
        <time>2020-02-08T14:39:15.000Z</time>
      </trkpt>
      <trkpt lat="45.1986" lon="5.84786">
        <ele>444.01</ele>
        <time>2020-02-08T14:39:20.000Z</time>
      </trkpt>
      <trkpt lat="45.19861" lon="5.84737">
        <ele>441.68</ele>
        <time>2020-02-08T14:39:25.000Z</time>
      </trkpt>
      <trkpt lat="45.19854" lon="5.84698">
        <ele>437.62</ele>
        <time>2020-02-08T14:39:30.000Z</time>
      </trkpt>
      <trkpt lat="45.19869" lon="5.84662">
        <ele>434.53</ele>
        <time>2020-02-08T14:39:35.000Z</time>
      </trkpt>
      <trkpt lat="45.19897" lon="5.8462">
        <ele>430.86</ele>
        <time>2020-02-08T14:39:40.000Z</time>
      </trkpt>
      <trkpt lat="45.19932" lon="5.84566">
        <ele>426.88</ele>
        <time>2020-02-08T14:39:45.000Z</time>
      </trkpt>
      <trkpt lat="45.19963" lon="5.84496">
        <ele>420.61</ele>
        <time>2020-02-08T14:39:50.000Z</time>
      </trkpt>
      <trkpt lat="45.20023" lon="5.84475">
        <ele>413.38</ele>
        <time>2020-02-08T14:39:55.000Z</time>
      </trkpt>
      <trkpt lat="45.2008" lon="5.84462">
        <ele>410.92</ele>
        <time>2020-02-08T14:40:00.000Z</time>
      </trkpt>
      <trkpt lat="45.20132" lon="5.84532">
        <ele>407.08</ele>
        <time>2020-02-08T14:40:05.000Z</time>
      </trkpt>
      <trkpt lat="45.20164" lon="5.84612">
        <ele>403.96</ele>
        <time>2020-02-08T14:40:10.000Z</time>
      </trkpt>
      <trkpt lat="45.20203" lon="5.84691">
        <ele>399.21</ele>
        <time>2020-02-08T14:40:15.000Z</time>
      </trkpt>
      <trkpt lat="45.20262" lon="5.84753">
        <ele>396.02</ele>
        <time>2020-02-08T14:40:20.000Z</time>
      </trkpt>
      <trkpt lat="45.20289" lon="5.8485">
        <ele>391.34</ele>
        <time>2020-02-08T14:40:25.000Z</time>
      </trkpt>
      <trkpt lat="45.20333" lon="5.84937">
        <ele>387.54</ele>
        <time>2020-02-08T14:40:30.000Z</time>
      </trkpt>
      <trkpt lat="45.20375" lon="5.85012">
        <ele>381.83</ele>
        <time>2020-02-08T14:40:35.000Z</time>
      </trkpt>
      <trkpt lat="45.204" lon="5.85083">
        <ele>368.55</ele>
        <time>2020-02-08T14:40:40.000Z</time>
      </trkpt>
      <trkpt lat="45.20413" lon="5.85113">
        <ele>363.22</ele>
        <time>2020-02-08T14:40:45.000Z</time>
      </trkpt>
      <trkpt lat="45.20413" lon="5.85083">
        <ele>352.98</ele>
        <time>2020-02-08T14:40:50.000Z</time>
      </trkpt>
      <trkpt lat="45.20394" lon="5.85032">
        <ele>349.76</ele>
        <time>2020-02-08T14:40:55.000Z</time>
      </trkpt>
      <trkpt lat="45.20373" lon="5.84968">
        <ele>344.95</ele>
        <time>2020-02-08T14:41:00.000Z</time>
      </trkpt>
      <trkpt lat="45.20347" lon="5.84891">
        <ele>332.39</ele>
        <time>2020-02-08T14:41:05.000Z</time>
      </trkpt>
      <trkpt lat="45.20327" lon="5.8483">
        <ele>324.16</ele>
        <time>2020-02-08T14:41:10.000Z</time>
      </trkpt>
      <trkpt lat="45.20318" lon="5.84754">
        <ele>317.08</ele>
        <time>2020-02-08T14:41:15.000Z</time>
      </trkpt>
      <trkpt lat="45.20302" lon="5.84672">
        <ele>312.52</ele>
        <time>2020-02-08T14:41:20.000Z</time>
      </trkpt>
      <trkpt lat="45.20273" lon="5.84587">
        <ele>306.42</ele>
        <time>2020-02-08T14:41:25.000Z</time>
      </trkpt>
      <trkpt lat="45.20244" lon="5.84502">
        <ele>300.75</ele>
        <time>2020-02-08T14:41:30.000Z</time>
      </trkpt>
      <trkpt lat="45.20228" lon="5.84405">
        <ele>295.81</ele>
        <time>2020-02-08T14:41:35.000Z</time>
      </trkpt>
      <trkpt lat="45.2019" lon="5.84316">
        <ele>286.35</ele>
        <time>2020-02-08T14:41:40.000Z</time>
      </trkpt>
      <trkpt lat="45.20169" lon="5.84237">
        <ele>280.3</ele>
        <time>2020-02-08T14:41:45.000Z</time>
      </trkpt>
      <trkpt lat="45.2012" lon="5.84228">
        <ele>277.09</ele>
        <time>2020-02-08T14:41:50.000Z</time>
      </trkpt>
      <trkpt lat="45.20059" lon="5.84248">
        <ele>268.49</ele>
        <time>2020-02-08T14:41:55.000Z</time>
      </trkpt>
      <trkpt lat="45.20004" lon="5.84257">
        <ele>264.55</ele>
        <time>2020-02-08T14:42:00.000Z</time>
      </trkpt>
      <trkpt lat="45.20005" lon="5.84217">
        <ele>265.89</ele>
        <time>2020-02-08T14:42:05.000Z</time>
      </trkpt>
      <trkpt lat="45.20042" lon="5.84186">
        <ele>265.16</ele>
        <time>2020-02-08T14:42:10.000Z</time>
      </trkpt>
      <trkpt lat="45.20074" lon="5.84154">
        <ele>262.71</ele>
        <time>2020-02-08T14:42:15.000Z</time>
      </trkpt>
      <trkpt lat="45.20095" lon="5.84113">
        <ele>260.12</ele>
        <time>2020-02-08T14:42:20.000Z</time>
      </trkpt>
      <trkpt lat="45.2011" lon="5.84071">
        <ele>254.89</ele>
        <time>2020-02-08T14:42:25.000Z</time>
      </trkpt>
      <trkpt lat="45.20133" lon="5.84052">
        <ele>251.87</ele>
        <time>2020-02-08T14:42:30.000Z</time>
      </trkpt>
      <trkpt lat="45.20134" lon="5.84038">
        <ele>263.17</ele>
        <time>2020-02-08T14:42:42.000Z</time>
      </trkpt>
      <trkpt lat="45.20133" lon="5.84025">
        <ele>272.84</ele>
        <time>2020-02-08T14:42:50.000Z</time>
      </trkpt>
      <trkpt lat="45.2013" lon="5.84012">
        <ele>277.36</ele>
        <time>2020-02-08T14:42:58.000Z</time>
      </trkpt>
      <trkpt lat="45.20136" lon="5.84">
        <ele>286.89</ele>
        <time>2020-02-08T14:44:28.000Z</time>
      </trkpt>
      <trkpt lat="45.20139" lon="5.83988">
        <ele>286.23</ele>
        <time>2020-02-08T14:44:40.000Z</time>
      </trkpt>
      <trkpt lat="45.20133" lon="5.83978">
        <ele>268.28</ele>
        <time>2020-02-08T14:45:00.000Z</time>
      </trkpt>
      <trkpt lat="45.2013" lon="5.83965">
        <ele>257.44</ele>
        <time>2020-02-08T14:45:18.000Z</time>
      </trkpt>
      <trkpt lat="45.20132" lon="5.83952">
        <ele>258.1</ele>
        <time>2020-02-08T14:45:25.000Z</time>
      </trkpt>
      <trkpt lat="45.20134" lon="5.83937">
        <ele>258.53</ele>
        <time>2020-02-08T14:45:31.000Z</time>
      </trkpt>
      <trkpt lat="45.20137" lon="5.83925">
        <ele>260.1</ele>
        <time>2020-02-08T14:45:36.000Z</time>
      </trkpt>
      <trkpt lat="45.20125" lon="5.83922">
        <ele>253.52</ele>
        <time>2020-02-08T14:45:41.000Z</time>
      </trkpt>
      <trkpt lat="45.20118" lon="5.83913">
        <ele>251.87</ele>
        <time>2020-02-08T14:45:49.000Z</time>
      </trkpt>
      <trkpt lat="45.20125" lon="5.83901">
        <ele>256.97</ele>
        <time>2020-02-08T14:47:09.000Z</time>
      </trkpt>
      <trkpt lat="45.20113" lon="5.83908">
        <ele>254.38</ele>
        <time>2020-02-08T14:47:31.000Z</time>
      </trkpt>
      <trkpt lat="45.20099" lon="5.83918">
        <ele>254.2</ele>
        <time>2020-02-08T14:47:36.000Z</time>
      </trkpt>
      <trkpt lat="45.2011" lon="5.83913">
        <ele>253.6</ele>
        <time>2020-02-08T14:47:41.000Z</time>
      </trkpt>
      <trkpt lat="45.20119" lon="5.8391">
        <ele>250.56</ele>
        <time>2020-02-08T14:48:18.000Z</time>
      </trkpt>
      <trkpt lat="45.20129" lon="5.83904">
        <ele>250.82</ele>
        <time>2020-02-08T14:49:17.000Z</time>
      </trkpt>
      <trkpt lat="45.20128" lon="5.83889">
        <ele>253.92</ele>
        <time>2020-02-08T14:49:23.000Z</time>
      </trkpt>
      <trkpt lat="45.20122" lon="5.83872">
        <ele>252.8</ele>
        <time>2020-02-08T14:49:28.000Z</time>
      </trkpt>
      <trkpt lat="45.20101" lon="5.83868">
        <ele>250.66</ele>
        <time>2020-02-08T14:49:33.000Z</time>
      </trkpt>
      <trkpt lat="45.20096" lon="5.83855">
        <ele>249.54</ele>
        <time>2020-02-08T14:49:39.000Z</time>
      </trkpt>
      <trkpt lat="45.20087" lon="5.83845">
        <ele>251.09</ele>
        <time>2020-02-08T14:49:44.000Z</time>
      </trkpt>
      <trkpt lat="45.20075" lon="5.83833">
        <ele>249.53</ele>
        <time>2020-02-08T14:49:49.000Z</time>
      </trkpt>
      <trkpt lat="45.20061" lon="5.83822">
        <ele>250.17</ele>
        <time>2020-02-08T14:49:54.000Z</time>
      </trkpt>
      <trkpt lat="45.20049" lon="5.83811">
        <ele>247.14</ele>
        <time>2020-02-08T14:49:59.000Z</time>
      </trkpt>
      <trkpt lat="45.20033" lon="5.83796">
        <ele>242.99</ele>
        <time>2020-02-08T14:50:04.000Z</time>
      </trkpt>
      <trkpt lat="45.20017" lon="5.83779">
        <ele>240.87</ele>
        <time>2020-02-08T14:50:09.000Z</time>
      </trkpt>
      <trkpt lat="45.20005" lon="5.83757">
        <ele>239.2</ele>
        <time>2020-02-08T14:50:14.000Z</time>
      </trkpt>
      <trkpt lat="45.19991" lon="5.83743">
        <ele>240.36</ele>
        <time>2020-02-08T14:50:19.000Z</time>
      </trkpt>
      <trkpt lat="45.19981" lon="5.83728">
        <ele>240.3</ele>
        <time>2020-02-08T14:50:24.000Z</time>
      </trkpt>
      <trkpt lat="45.19969" lon="5.83713">
        <ele>244.01</ele>
        <time>2020-02-08T14:50:29.000Z</time>
      </trkpt>
      <trkpt lat="45.19956" lon="5.83695">
        <ele>245.57</ele>
        <time>2020-02-08T14:50:34.000Z</time>
      </trkpt>
      <trkpt lat="45.19936" lon="5.83669">
        <ele>243.55</ele>
        <time>2020-02-08T14:50:39.000Z</time>
      </trkpt>
      <trkpt lat="45.19918" lon="5.83642">
        <ele>239.7</ele>
        <time>2020-02-08T14:50:44.000Z</time>
      </trkpt>
      <trkpt lat="45.19898" lon="5.83611">
        <ele>236.54</ele>
        <time>2020-02-08T14:50:49.000Z</time>
      </trkpt>
      <trkpt lat="45.19888" lon="5.83588">
        <ele>236.1</ele>
        <time>2020-02-08T14:50:54.000Z</time>
      </trkpt>
      <trkpt lat="45.19884" lon="5.83574">
        <ele>234.87</ele>
        <time>2020-02-08T14:50:59.000Z</time>
      </trkpt>
      <trkpt lat="45.19873" lon="5.83563">
        <ele>231.63</ele>
        <time>2020-02-08T14:51:04.000Z</time>
      </trkpt>
      <trkpt lat="45.19864" lon="5.83543">
        <ele>231.82</ele>
        <time>2020-02-08T14:51:09.000Z</time>
      </trkpt>
      <trkpt lat="45.19854" lon="5.83513">
        <ele>233.34</ele>
        <time>2020-02-08T14:51:14.000Z</time>
      </trkpt>
      <trkpt lat="45.19846" lon="5.83479">
        <ele>235.72</ele>
        <time>2020-02-08T14:51:19.000Z</time>
      </trkpt>
      <trkpt lat="45.19835" lon="5.83446">
        <ele>238.31</ele>
        <time>2020-02-08T14:51:24.000Z</time>
      </trkpt>
      <trkpt lat="45.19832" lon="5.83415">
        <ele>238.75</ele>
        <time>2020-02-08T14:51:29.000Z</time>
      </trkpt>
      <trkpt lat="45.19815" lon="5.83389">
        <ele>235.53</ele>
        <time>2020-02-08T14:51:34.000Z</time>
      </trkpt>
      <trkpt lat="45.19806" lon="5.83361">
        <ele>233.96</ele>
        <time>2020-02-08T14:51:39.000Z</time>
      </trkpt>
      <trkpt lat="45.19794" lon="5.83326">
        <ele>234.32</ele>
        <time>2020-02-08T14:51:44.000Z</time>
      </trkpt>
      <trkpt lat="45.19783" lon="5.83289">
        <ele>232.59</ele>
        <time>2020-02-08T14:51:49.000Z</time>
      </trkpt>
      <trkpt lat="45.19772" lon="5.83251">
        <ele>231.82</ele>
        <time>2020-02-08T14:51:54.000Z</time>
      </trkpt>
      <trkpt lat="45.19751" lon="5.83206">
        <ele>226.12</ele>
        <time>2020-02-08T14:51:59.000Z</time>
      </trkpt>
      <trkpt lat="45.19735" lon="5.83161">
        <ele>223.37</ele>
        <time>2020-02-08T14:52:04.000Z</time>
      </trkpt>
      <trkpt lat="45.19723" lon="5.83128">
        <ele>226.19</ele>
        <time>2020-02-08T14:52:09.000Z</time>
      </trkpt>
      <trkpt lat="45.19711" lon="5.83086">
        <ele>226.27</ele>
        <time>2020-02-08T14:52:14.000Z</time>
      </trkpt>
      <trkpt lat="45.19692" lon="5.83043">
        <ele>223.6</ele>
        <time>2020-02-08T14:52:19.000Z</time>
      </trkpt>
      <trkpt lat="45.19676" lon="5.83003">
        <ele>223.32</ele>
        <time>2020-02-08T14:52:24.000Z</time>
      </trkpt>
      <trkpt lat="45.19667" lon="5.82959">
        <ele>223.47</ele>
        <time>2020-02-08T14:52:29.000Z</time>
      </trkpt>
      <trkpt lat="45.19666" lon="5.8293">
        <ele>223.62</ele>
        <time>2020-02-08T14:52:34.000Z</time>
      </trkpt>
      <trkpt lat="45.19655" lon="5.82916">
        <ele>221.69</ele>
        <time>2020-02-08T14:52:39.000Z</time>
      </trkpt>
      <trkpt lat="45.19645" lon="5.82891">
        <ele>222.69</ele>
        <time>2020-02-08T14:52:44.000Z</time>
      </trkpt>
      <trkpt lat="45.19635" lon="5.82864">
        <ele>223.74</ele>
        <time>2020-02-08T14:52:49.000Z</time>
      </trkpt>
      <trkpt lat="45.19618" lon="5.82836">
        <ele>222.14</ele>
        <time>2020-02-08T14:52:54.000Z</time>
      </trkpt>
      <trkpt lat="45.19607" lon="5.82804">
        <ele>222.88</ele>
        <time>2020-02-08T14:52:59.000Z</time>
      </trkpt>
      <trkpt lat="45.19593" lon="5.8277">
        <ele>222.14</ele>
        <time>2020-02-08T14:53:04.000Z</time>
      </trkpt>
      <trkpt lat="45.1958" lon="5.82736">
        <ele>220.14</ele>
        <time>2020-02-08T14:53:09.000Z</time>
      </trkpt>
      <trkpt lat="45.19565" lon="5.82698">
        <ele>215.05</ele>
        <time>2020-02-08T14:53:14.000Z</time>
      </trkpt>
      <trkpt lat="45.19551" lon="5.82659">
        <ele>211.66</ele>
        <time>2020-02-08T14:53:19.000Z</time>
      </trkpt>
      <trkpt lat="45.19538" lon="5.82626">
        <ele>213.43</ele>
        <time>2020-02-08T14:53:24.000Z</time>
      </trkpt>
      <trkpt lat="45.19528" lon="5.82591">
        <ele>215.3</ele>
        <time>2020-02-08T14:53:29.000Z</time>
      </trkpt>
      <trkpt lat="45.19517" lon="5.82556">
        <ele>216.57</ele>
        <time>2020-02-08T14:53:34.000Z</time>
      </trkpt>
      <trkpt lat="45.19507" lon="5.82524">
        <ele>220.96</ele>
        <time>2020-02-08T14:53:39.000Z</time>
      </trkpt>
      <trkpt lat="45.19493" lon="5.82486">
        <ele>217.59</ele>
        <time>2020-02-08T14:53:44.000Z</time>
      </trkpt>
      <trkpt lat="45.19484" lon="5.82451">
        <ele>220.01</ele>
        <time>2020-02-08T14:53:49.000Z</time>
      </trkpt>
      <trkpt lat="45.19471" lon="5.82414">
        <ele>221.32</ele>
        <time>2020-02-08T14:53:54.000Z</time>
      </trkpt>
      <trkpt lat="45.19459" lon="5.8238">
        <ele>224.46</ele>
        <time>2020-02-08T14:53:59.000Z</time>
      </trkpt>
      <trkpt lat="45.19445" lon="5.82334">
        <ele>218.25</ele>
        <time>2020-02-08T14:54:04.000Z</time>
      </trkpt>
      <trkpt lat="45.1943" lon="5.823">
        <ele>217.64</ele>
        <time>2020-02-08T14:54:09.000Z</time>
      </trkpt>
      <trkpt lat="45.19417" lon="5.82265">
        <ele>219.91</ele>
        <time>2020-02-08T14:54:14.000Z</time>
      </trkpt>
      <trkpt lat="45.19405" lon="5.82228">
        <ele>221.04</ele>
        <time>2020-02-08T14:54:19.000Z</time>
      </trkpt>
      <trkpt lat="45.19393" lon="5.82192">
        <ele>222.84</ele>
        <time>2020-02-08T14:54:24.000Z</time>
      </trkpt>
      <trkpt lat="45.19381" lon="5.82156">
        <ele>225.17</ele>
        <time>2020-02-08T14:54:29.000Z</time>
      </trkpt>
      <trkpt lat="45.19365" lon="5.82117">
        <ele>222.69</ele>
        <time>2020-02-08T14:54:34.000Z</time>
      </trkpt>
      <trkpt lat="45.19349" lon="5.82078">
        <ele>222.17</ele>
        <time>2020-02-08T14:54:39.000Z</time>
      </trkpt>
      <trkpt lat="45.19339" lon="5.82039">
        <ele>221.55</ele>
        <time>2020-02-08T14:54:44.000Z</time>
      </trkpt>
      <trkpt lat="45.19324" lon="5.82005">
        <ele>220.9</ele>
        <time>2020-02-08T14:54:49.000Z</time>
      </trkpt>
      <trkpt lat="45.19312" lon="5.81969">
        <ele>219.31</ele>
        <time>2020-02-08T14:54:54.000Z</time>
      </trkpt>
      <trkpt lat="45.19301" lon="5.81938">
        <ele>220.58</ele>
        <time>2020-02-08T14:54:59.000Z</time>
      </trkpt>
      <trkpt lat="45.19285" lon="5.81907">
        <ele>218.53</ele>
        <time>2020-02-08T14:55:04.000Z</time>
      </trkpt>
      <trkpt lat="45.19275" lon="5.81882">
        <ele>216.07</ele>
        <time>2020-02-08T14:55:09.000Z</time>
      </trkpt>
      <trkpt lat="45.19268" lon="5.81856">
        <ele>216.65</ele>
        <time>2020-02-08T14:55:14.000Z</time>
      </trkpt>
      <trkpt lat="45.19257" lon="5.81831">
        <ele>218.2</ele>
        <time>2020-02-08T14:55:19.000Z</time>
      </trkpt>
      <trkpt lat="45.19248" lon="5.81807">
        <ele>221.75</ele>
        <time>2020-02-08T14:55:24.000Z</time>
      </trkpt>
      <trkpt lat="45.19239" lon="5.81781">
        <ele>222.42</ele>
        <time>2020-02-08T14:55:29.000Z</time>
      </trkpt>
      <trkpt lat="45.1923" lon="5.81755">
        <ele>224.92</ele>
        <time>2020-02-08T14:55:34.000Z</time>
      </trkpt>
      <trkpt lat="45.19221" lon="5.81729">
        <ele>224.24</ele>
        <time>2020-02-08T14:55:39.000Z</time>
      </trkpt>
      <trkpt lat="45.19209" lon="5.81702">
        <ele>225.25</ele>
        <time>2020-02-08T14:55:44.000Z</time>
      </trkpt>
      <trkpt lat="45.19197" lon="5.81671">
        <ele>225.62</ele>
        <time>2020-02-08T14:55:49.000Z</time>
      </trkpt>
      <trkpt lat="45.1918" lon="5.81634">
        <ele>224.13</ele>
        <time>2020-02-08T14:55:54.000Z</time>
      </trkpt>
      <trkpt lat="45.1916" lon="5.81597">
        <ele>220.76</ele>
        <time>2020-02-08T14:55:59.000Z</time>
      </trkpt>
      <trkpt lat="45.19142" lon="5.81548">
        <ele>217.54</ele>
        <time>2020-02-08T14:56:04.000Z</time>
      </trkpt>
      <trkpt lat="45.19122" lon="5.81503">
        <ele>213.48</ele>
        <time>2020-02-08T14:56:09.000Z</time>
      </trkpt>
      <trkpt lat="45.19105" lon="5.81458">
        <ele>211.04</ele>
        <time>2020-02-08T14:56:14.000Z</time>
      </trkpt>
      <trkpt lat="45.19087" lon="5.81418">
        <ele>211.7</ele>
        <time>2020-02-08T14:56:19.000Z</time>
      </trkpt>
      <trkpt lat="45.19069" lon="5.81381">
        <ele>212.1</ele>
        <time>2020-02-08T14:56:24.000Z</time>
      </trkpt>
      <trkpt lat="45.19056" lon="5.81352">
        <ele>215.78</ele>
        <time>2020-02-08T14:56:29.000Z</time>
      </trkpt>
      <trkpt lat="45.19043" lon="5.81319">
        <ele>218.64</ele>
        <time>2020-02-08T14:56:34.000Z</time>
      </trkpt>
      <trkpt lat="45.19028" lon="5.81284">
        <ele>218.41</ele>
        <time>2020-02-08T14:56:39.000Z</time>
      </trkpt>
      <trkpt lat="45.1901" lon="5.81248">
        <ele>217.46</ele>
        <time>2020-02-08T14:56:44.000Z</time>
      </trkpt>
      <trkpt lat="45.18993" lon="5.81211">
        <ele>216.68</ele>
        <time>2020-02-08T14:56:49.000Z</time>
      </trkpt>
      <trkpt lat="45.18979" lon="5.81175">
        <ele>215.9</ele>
        <time>2020-02-08T14:56:54.000Z</time>
      </trkpt>
      <trkpt lat="45.18963" lon="5.81139">
        <ele>217.17</ele>
        <time>2020-02-08T14:56:59.000Z</time>
      </trkpt>
      <trkpt lat="45.18946" lon="5.81102">
        <ele>217.5</ele>
        <time>2020-02-08T14:57:04.000Z</time>
      </trkpt>
      <trkpt lat="45.1893" lon="5.81071">
        <ele>219.76</ele>
        <time>2020-02-08T14:57:09.000Z</time>
      </trkpt>
      <trkpt lat="45.18915" lon="5.81038">
        <ele>219.92</ele>
        <time>2020-02-08T14:57:14.000Z</time>
      </trkpt>
      <trkpt lat="45.18904" lon="5.81002">
        <ele>221.82</ele>
        <time>2020-02-08T14:57:19.000Z</time>
      </trkpt>
      <trkpt lat="45.18887" lon="5.80969">
        <ele>222.87</ele>
        <time>2020-02-08T14:57:24.000Z</time>
      </trkpt>
      <trkpt lat="45.18871" lon="5.80928">
        <ele>223.42</ele>
        <time>2020-02-08T14:57:29.000Z</time>
      </trkpt>
      <trkpt lat="45.18852" lon="5.80885">
        <ele>221.06</ele>
        <time>2020-02-08T14:57:34.000Z</time>
      </trkpt>
      <trkpt lat="45.18834" lon="5.80848">
        <ele>220.8</ele>
        <time>2020-02-08T14:57:39.000Z</time>
      </trkpt>
      <trkpt lat="45.18818" lon="5.80813">
        <ele>219.63</ele>
        <time>2020-02-08T14:57:44.000Z</time>
      </trkpt>
      <trkpt lat="45.18796" lon="5.8078">
        <ele>216.74</ele>
        <time>2020-02-08T14:57:49.000Z</time>
      </trkpt>
      <trkpt lat="45.18777" lon="5.80754">
        <ele>218.49</ele>
        <time>2020-02-08T14:57:54.000Z</time>
      </trkpt>
      <trkpt lat="45.18779" lon="5.80738">
        <ele>222.05</ele>
        <time>2020-02-08T14:57:59.000Z</time>
      </trkpt>
      <trkpt lat="45.18792" lon="5.80727">
        <ele>219.07</ele>
        <time>2020-02-08T14:58:04.000Z</time>
      </trkpt>
      <trkpt lat="45.18807" lon="5.80727">
        <ele>219.02</ele>
        <time>2020-02-08T14:58:09.000Z</time>
      </trkpt>
      <trkpt lat="45.18826" lon="5.8072">
        <ele>217.92</ele>
        <time>2020-02-08T14:58:14.000Z</time>
      </trkpt>
      <trkpt lat="45.18844" lon="5.80706">
        <ele>220.59</ele>
        <time>2020-02-08T14:58:19.000Z</time>
      </trkpt>
      <trkpt lat="45.18861" lon="5.80687">
        <ele>218.21</ele>
        <time>2020-02-08T14:58:24.000Z</time>
      </trkpt>
      <trkpt lat="45.18855" lon="5.8067">
        <ele>216.05</ele>
        <time>2020-02-08T14:58:29.000Z</time>
      </trkpt>
      <trkpt lat="45.18837" lon="5.80669">
        <ele>217.79</ele>
        <time>2020-02-08T14:58:34.000Z</time>
      </trkpt>
      <trkpt lat="45.18818" lon="5.80664">
        <ele>218.5</ele>
        <time>2020-02-08T14:58:39.000Z</time>
      </trkpt>
      <trkpt lat="45.18796" lon="5.80654">
        <ele>219.19</ele>
        <time>2020-02-08T14:58:44.000Z</time>
      </trkpt>
      <trkpt lat="45.18774" lon="5.8064">
        <ele>219.2</ele>
        <time>2020-02-08T14:58:49.000Z</time>
      </trkpt>
      <trkpt lat="45.18753" lon="5.80625">
        <ele>218.28</ele>
        <time>2020-02-08T14:58:54.000Z</time>
      </trkpt>
      <trkpt lat="45.18733" lon="5.80605">
        <ele>215.19</ele>
        <time>2020-02-08T14:58:59.000Z</time>
      </trkpt>
      <trkpt lat="45.18718" lon="5.80585">
        <ele>220.3</ele>
        <time>2020-02-08T14:59:04.000Z</time>
      </trkpt>
      <trkpt lat="45.18703" lon="5.80552">
        <ele>221.51</ele>
        <time>2020-02-08T14:59:09.000Z</time>
      </trkpt>
      <trkpt lat="45.18687" lon="5.8052">
        <ele>218.75</ele>
        <time>2020-02-08T14:59:14.000Z</time>
      </trkpt>
      <trkpt lat="45.18673" lon="5.80487">
        <ele>215.88</ele>
        <time>2020-02-08T14:59:19.000Z</time>
      </trkpt>
      <trkpt lat="45.1867" lon="5.80451">
        <ele>215.77</ele>
        <time>2020-02-08T14:59:24.000Z</time>
      </trkpt>
      <trkpt lat="45.18667" lon="5.80414">
        <ele>215.92</ele>
        <time>2020-02-08T14:59:29.000Z</time>
      </trkpt>
      <trkpt lat="45.18658" lon="5.80374">
        <ele>215.66</ele>
        <time>2020-02-08T14:59:34.000Z</time>
      </trkpt>
      <trkpt lat="45.18651" lon="5.80336">
        <ele>216.6</ele>
        <time>2020-02-08T14:59:39.000Z</time>
      </trkpt>
      <trkpt lat="45.18652" lon="5.80294">
        <ele>215.32</ele>
        <time>2020-02-08T14:59:44.000Z</time>
      </trkpt>
      <trkpt lat="45.18657" lon="5.80254">
        <ele>213.94</ele>
        <time>2020-02-08T14:59:49.000Z</time>
      </trkpt>
      <trkpt lat="45.18666" lon="5.80213">
        <ele>214.66</ele>
        <time>2020-02-08T14:59:54.000Z</time>
      </trkpt>
      <trkpt lat="45.18684" lon="5.80178">
        <ele>216.12</ele>
        <time>2020-02-08T14:59:59.000Z</time>
      </trkpt>
      <trkpt lat="45.18695" lon="5.8014">
        <ele>216.99</ele>
        <time>2020-02-08T15:00:04.000Z</time>
      </trkpt>
      <trkpt lat="45.18703" lon="5.80111">
        <ele>220.53</ele>
        <time>2020-02-08T15:00:09.000Z</time>
      </trkpt>
      <trkpt lat="45.18703" lon="5.80085">
        <ele>220.45</ele>
        <time>2020-02-08T15:00:14.000Z</time>
      </trkpt>
      <trkpt lat="45.18689" lon="5.80054">
        <ele>217.26</ele>
        <time>2020-02-08T15:00:19.000Z</time>
      </trkpt>
      <trkpt lat="45.18673" lon="5.80017">
        <ele>214.49</ele>
        <time>2020-02-08T15:00:24.000Z</time>
      </trkpt>
      <trkpt lat="45.18661" lon="5.79978">
        <ele>214.06</ele>
        <time>2020-02-08T15:00:29.000Z</time>
      </trkpt>
      <trkpt lat="45.18649" lon="5.79942">
        <ele>214.11</ele>
        <time>2020-02-08T15:00:34.000Z</time>
      </trkpt>
      <trkpt lat="45.18624" lon="5.79927">
        <ele>214.78</ele>
        <time>2020-02-08T15:00:39.000Z</time>
      </trkpt>
      <trkpt lat="45.18594" lon="5.79917">
        <ele>211.68</ele>
        <time>2020-02-08T15:00:44.000Z</time>
      </trkpt>
      <trkpt lat="45.18569" lon="5.79902">
        <ele>211.32</ele>
        <time>2020-02-08T15:00:49.000Z</time>
      </trkpt>
      <trkpt lat="45.18549" lon="5.7989">
        <ele>211.67</ele>
        <time>2020-02-08T15:00:54.000Z</time>
      </trkpt>
      <trkpt lat="45.18543" lon="5.79872">
        <ele>211.84</ele>
        <time>2020-02-08T15:00:59.000Z</time>
      </trkpt>
      <trkpt lat="45.18544" lon="5.79846">
        <ele>211.38</ele>
        <time>2020-02-08T15:01:04.000Z</time>
      </trkpt>
      <trkpt lat="45.18545" lon="5.79814">
        <ele>211.18</ele>
        <time>2020-02-08T15:01:09.000Z</time>
      </trkpt>
      <trkpt lat="45.18544" lon="5.7978">
        <ele>208.83</ele>
        <time>2020-02-08T15:01:14.000Z</time>
      </trkpt>
      <trkpt lat="45.1854" lon="5.79749">
        <ele>203.58</ele>
        <time>2020-02-08T15:01:19.000Z</time>
      </trkpt>
      <trkpt lat="45.18544" lon="5.79717">
        <ele>206.47</ele>
        <time>2020-02-08T15:01:24.000Z</time>
      </trkpt>
      <trkpt lat="45.18548" lon="5.79677">
        <ele>210.49</ele>
        <time>2020-02-08T15:01:29.000Z</time>
      </trkpt>
      <trkpt lat="45.18554" lon="5.79639">
        <ele>213.61</ele>
        <time>2020-02-08T15:01:34.000Z</time>
      </trkpt>
      <trkpt lat="45.18555" lon="5.79601">
        <ele>216.3</ele>
        <time>2020-02-08T15:01:39.000Z</time>
      </trkpt>
      <trkpt lat="45.1855" lon="5.7956">
        <ele>214.91</ele>
        <time>2020-02-08T15:01:44.000Z</time>
      </trkpt>
      <trkpt lat="45.18539" lon="5.79521">
        <ele>215.3</ele>
        <time>2020-02-08T15:01:49.000Z</time>
      </trkpt>
      <trkpt lat="45.18531" lon="5.79489">
        <ele>216.39</ele>
        <time>2020-02-08T15:01:54.000Z</time>
      </trkpt>
      <trkpt lat="45.18525" lon="5.79453">
        <ele>216.88</ele>
        <time>2020-02-08T15:01:59.000Z</time>
      </trkpt>
      <trkpt lat="45.18523" lon="5.79417">
        <ele>218.44</ele>
        <time>2020-02-08T15:02:04.000Z</time>
      </trkpt>
      <trkpt lat="45.18521" lon="5.79382">
        <ele>218.85</ele>
        <time>2020-02-08T15:02:09.000Z</time>
      </trkpt>
      <trkpt lat="45.18523" lon="5.79347">
        <ele>218.05</ele>
        <time>2020-02-08T15:02:14.000Z</time>
      </trkpt>
      <trkpt lat="45.1853" lon="5.79315">
        <ele>219.55</ele>
        <time>2020-02-08T15:02:19.000Z</time>
      </trkpt>
      <trkpt lat="45.18537" lon="5.79282">
        <ele>219.52</ele>
        <time>2020-02-08T15:02:24.000Z</time>
      </trkpt>
      <trkpt lat="45.18547" lon="5.79247">
        <ele>219.57</ele>
        <time>2020-02-08T15:02:29.000Z</time>
      </trkpt>
      <trkpt lat="45.18559" lon="5.7921">
        <ele>217.3</ele>
        <time>2020-02-08T15:02:34.000Z</time>
      </trkpt>
      <trkpt lat="45.18542" lon="5.79183">
        <ele>217.55</ele>
        <time>2020-02-08T15:02:39.000Z</time>
      </trkpt>
      <trkpt lat="45.18531" lon="5.7916">
        <ele>217.66</ele>
        <time>2020-02-08T15:02:44.000Z</time>
      </trkpt>
      <trkpt lat="45.18521" lon="5.79146">
        <ele>217.12</ele>
        <time>2020-02-08T15:02:49.000Z</time>
      </trkpt>
      <trkpt lat="45.18512" lon="5.7913">
        <ele>216.87</ele>
        <time>2020-02-08T15:02:54.000Z</time>
      </trkpt>
      <trkpt lat="45.1851" lon="5.79117">
        <ele>218.42</ele>
        <time>2020-02-08T15:02:59.000Z</time>
      </trkpt>
      <trkpt lat="45.18505" lon="5.79091">
        <ele>216.93</ele>
        <time>2020-02-08T15:03:04.000Z</time>
      </trkpt>
      <trkpt lat="45.185" lon="5.79063">
        <ele>217.81</ele>
        <time>2020-02-08T15:03:09.000Z</time>
      </trkpt>
      <trkpt lat="45.18494" lon="5.79051">
        <ele>217.81</ele>
        <time>2020-02-08T15:03:21.000Z</time>
      </trkpt>
      <trkpt lat="45.18476" lon="5.79058">
        <ele>215.24</ele>
        <time>2020-02-08T15:03:26.000Z</time>
      </trkpt>
      <trkpt lat="45.18455" lon="5.79065">
        <ele>215.36</ele>
        <time>2020-02-08T15:03:31.000Z</time>
      </trkpt>
      <trkpt lat="45.18424" lon="5.79061">
        <ele>216.34</ele>
        <time>2020-02-08T15:03:36.000Z</time>
      </trkpt>
      <trkpt lat="45.18399" lon="5.79063">
        <ele>213.76</ele>
        <time>2020-02-08T15:03:41.000Z</time>
      </trkpt>
      <trkpt lat="45.18382" lon="5.7908">
        <ele>212.85</ele>
        <time>2020-02-08T15:03:46.000Z</time>
      </trkpt>
      <trkpt lat="45.18363" lon="5.79102">
        <ele>215.71</ele>
        <time>2020-02-08T15:03:51.000Z</time>
      </trkpt>
      <trkpt lat="45.18347" lon="5.79129">
        <ele>214.91</ele>
        <time>2020-02-08T15:03:56.000Z</time>
      </trkpt>
      <trkpt lat="45.1833" lon="5.79152">
        <ele>214.03</ele>
        <time>2020-02-08T15:04:01.000Z</time>
      </trkpt>
      <trkpt lat="45.18308" lon="5.79166">
        <ele>214.42</ele>
        <time>2020-02-08T15:04:06.000Z</time>
      </trkpt>
      <trkpt lat="45.1829" lon="5.79179">
        <ele>213.94</ele>
        <time>2020-02-08T15:04:11.000Z</time>
      </trkpt>
      <trkpt lat="45.18271" lon="5.79191">
        <ele>218.45</ele>
        <time>2020-02-08T15:04:16.000Z</time>
      </trkpt>
      <trkpt lat="45.18252" lon="5.79201">
        <ele>218.34</ele>
        <time>2020-02-08T15:04:21.000Z</time>
      </trkpt>
      <trkpt lat="45.18235" lon="5.79211">
        <ele>218.57</ele>
        <time>2020-02-08T15:04:26.000Z</time>
      </trkpt>
      <trkpt lat="45.18218" lon="5.79223">
        <ele>218.42</ele>
        <time>2020-02-08T15:04:31.000Z</time>
      </trkpt>
      <trkpt lat="45.18205" lon="5.79239">
        <ele>219.42</ele>
        <time>2020-02-08T15:04:36.000Z</time>
      </trkpt>
      <trkpt lat="45.18193" lon="5.79236">
        <ele>218.72</ele>
        <time>2020-02-08T15:04:41.000Z</time>
      </trkpt>
      <trkpt lat="45.18195" lon="5.79222">
        <ele>224.28</ele>
        <time>2020-02-08T15:05:22.000Z</time>
      </trkpt>
      <trkpt lat="45.18186" lon="5.79199">
        <ele>228.66</ele>
        <time>2020-02-08T15:05:27.000Z</time>
      </trkpt>
      <trkpt lat="45.18176" lon="5.79174">
        <ele>230.87</ele>
        <time>2020-02-08T15:05:32.000Z</time>
      </trkpt>
      <trkpt lat="45.18174" lon="5.79148">
        <ele>228.43</ele>
        <time>2020-02-08T15:05:37.000Z</time>
      </trkpt>
      <trkpt lat="45.18173" lon="5.79118">
        <ele>226.6</ele>
        <time>2020-02-08T15:05:42.000Z</time>
      </trkpt>
      <trkpt lat="45.1817" lon="5.79086">
        <ele>224.4</ele>
        <time>2020-02-08T15:05:47.000Z</time>
      </trkpt>
      <trkpt lat="45.18168" lon="5.79054">
        <ele>225.53</ele>
        <time>2020-02-08T15:05:52.000Z</time>
      </trkpt>
      <trkpt lat="45.18166" lon="5.79018">
        <ele>228.02</ele>
        <time>2020-02-08T15:05:57.000Z</time>
      </trkpt>
      <trkpt lat="45.18164" lon="5.7898">
        <ele>229.77</ele>
        <time>2020-02-08T15:06:02.000Z</time>
      </trkpt>
      <trkpt lat="45.18158" lon="5.78938">
        <ele>225.05</ele>
        <time>2020-02-08T15:06:07.000Z</time>
      </trkpt>
      <trkpt lat="45.18147" lon="5.78914">
        <ele>223.7</ele>
        <time>2020-02-08T15:06:12.000Z</time>
      </trkpt>
      <trkpt lat="45.18127" lon="5.78922">
        <ele>225.63</ele>
        <time>2020-02-08T15:06:17.000Z</time>
      </trkpt>
      <trkpt lat="45.18106" lon="5.78932">
        <ele>224.16</ele>
        <time>2020-02-08T15:06:22.000Z</time>
      </trkpt>
      <trkpt lat="45.18084" lon="5.78945">
        <ele>221.85</ele>
        <time>2020-02-08T15:06:27.000Z</time>
      </trkpt>
      <trkpt lat="45.18063" lon="5.78962">
        <ele>219.77</ele>
        <time>2020-02-08T15:06:32.000Z</time>
      </trkpt>
      <trkpt lat="45.18042" lon="5.7898">
        <ele>218.64</ele>
        <time>2020-02-08T15:06:37.000Z</time>
      </trkpt>
      <trkpt lat="45.18036" lon="5.79011">
        <ele>221.96</ele>
        <time>2020-02-08T15:06:42.000Z</time>
      </trkpt>
      <trkpt lat="45.18038" lon="5.79046">
        <ele>220.76</ele>
        <time>2020-02-08T15:06:47.000Z</time>
      </trkpt>
      <trkpt lat="45.18032" lon="5.79081">
        <ele>213.86</ele>
        <time>2020-02-08T15:06:52.000Z</time>
      </trkpt>
      <trkpt lat="45.18022" lon="5.791">
        <ele>214.74</ele>
        <time>2020-02-08T15:06:57.000Z</time>
      </trkpt>
      <trkpt lat="45.18002" lon="5.79092">
        <ele>218.53</ele>
        <time>2020-02-08T15:07:02.000Z</time>
      </trkpt>
      <trkpt lat="45.17984" lon="5.79086">
        <ele>223.77</ele>
        <time>2020-02-08T15:07:07.000Z</time>
      </trkpt>
      <trkpt lat="45.17969" lon="5.79064">
        <ele>225.06</ele>
        <time>2020-02-08T15:07:12.000Z</time>
      </trkpt>
      <trkpt lat="45.17945" lon="5.79045">
        <ele>221.51</ele>
        <time>2020-02-08T15:07:17.000Z</time>
      </trkpt>
      <trkpt lat="45.1793" lon="5.79024">
        <ele>220.6</ele>
        <time>2020-02-08T15:07:22.000Z</time>
      </trkpt>
      <trkpt lat="45.17915" lon="5.79014">
        <ele>221.96</ele>
        <time>2020-02-08T15:07:27.000Z</time>
      </trkpt>
      <trkpt lat="45.17894" lon="5.79014">
        <ele>221.1</ele>
        <time>2020-02-08T15:07:32.000Z</time>
      </trkpt>
      <trkpt lat="45.17875" lon="5.7902">
        <ele>222.75</ele>
        <time>2020-02-08T15:07:37.000Z</time>
      </trkpt>
      <trkpt lat="45.17853" lon="5.79015">
        <ele>226.09</ele>
        <time>2020-02-08T15:07:42.000Z</time>
      </trkpt>
      <trkpt lat="45.17832" lon="5.79007">
        <ele>227.04</ele>
        <time>2020-02-08T15:07:47.000Z</time>
      </trkpt>
      <trkpt lat="45.17816" lon="5.78997">
        <ele>228.84</ele>
        <time>2020-02-08T15:07:52.000Z</time>
      </trkpt>
      <trkpt lat="45.17807" lon="5.78992">
        <ele>230.26</ele>
        <time>2020-02-08T15:07:57.000Z</time>
      </trkpt>
      <trkpt lat="45.17785" lon="5.78988">
        <ele>230.36</ele>
        <time>2020-02-08T15:08:02.000Z</time>
      </trkpt>
      <trkpt lat="45.17761" lon="5.78987">
        <ele>231.24</ele>
        <time>2020-02-08T15:08:07.000Z</time>
      </trkpt>
      <trkpt lat="45.17736" lon="5.78989">
        <ele>230.39</ele>
        <time>2020-02-08T15:08:12.000Z</time>
      </trkpt>
      <trkpt lat="45.1771" lon="5.78987">
        <ele>231.37</ele>
        <time>2020-02-08T15:08:17.000Z</time>
      </trkpt>
      <trkpt lat="45.17684" lon="5.78982">
        <ele>230.2</ele>
        <time>2020-02-08T15:08:22.000Z</time>
      </trkpt>
      <trkpt lat="45.17657" lon="5.78968">
        <ele>229.09</ele>
        <time>2020-02-08T15:08:27.000Z</time>
      </trkpt>
      <trkpt lat="45.17635" lon="5.78963">
        <ele>231.97</ele>
        <time>2020-02-08T15:08:32.000Z</time>
      </trkpt>
      <trkpt lat="45.17612" lon="5.78962">
        <ele>237.76</ele>
        <time>2020-02-08T15:08:37.000Z</time>
      </trkpt>
      <trkpt lat="45.17587" lon="5.78963">
        <ele>237.69</ele>
        <time>2020-02-08T15:08:42.000Z</time>
      </trkpt>
      <trkpt lat="45.17565" lon="5.7898">
        <ele>240.15</ele>
        <time>2020-02-08T15:08:47.000Z</time>
      </trkpt>
      <trkpt lat="45.1754" lon="5.78993">
        <ele>236.71</ele>
        <time>2020-02-08T15:08:52.000Z</time>
      </trkpt>
      <trkpt lat="45.17516" lon="5.79004">
        <ele>234.82</ele>
        <time>2020-02-08T15:08:57.000Z</time>
      </trkpt>
      <trkpt lat="45.1749" lon="5.79008">
        <ele>234.33</ele>
        <time>2020-02-08T15:09:02.000Z</time>
      </trkpt>
      <trkpt lat="45.1746" lon="5.79004">
        <ele>232.45</ele>
        <time>2020-02-08T15:09:07.000Z</time>
      </trkpt>
      <trkpt lat="45.17433" lon="5.78999">
        <ele>232.3</ele>
        <time>2020-02-08T15:09:12.000Z</time>
      </trkpt>
      <trkpt lat="45.17405" lon="5.78995">
        <ele>232.83</ele>
        <time>2020-02-08T15:09:17.000Z</time>
      </trkpt>
      <trkpt lat="45.1738" lon="5.78989">
        <ele>231.37</ele>
        <time>2020-02-08T15:09:22.000Z</time>
      </trkpt>
      <trkpt lat="45.17355" lon="5.78986">
        <ele>232.36</ele>
        <time>2020-02-08T15:09:27.000Z</time>
      </trkpt>
      <trkpt lat="45.17334" lon="5.78993">
        <ele>235.97</ele>
        <time>2020-02-08T15:09:32.000Z</time>
      </trkpt>
      <trkpt lat="45.17308" lon="5.78988">
        <ele>232.09</ele>
        <time>2020-02-08T15:09:37.000Z</time>
      </trkpt>
      <trkpt lat="45.17282" lon="5.78991">
        <ele>232.38</ele>
        <time>2020-02-08T15:09:42.000Z</time>
      </trkpt>
      <trkpt lat="45.17255" lon="5.78999">
        <ele>235.91</ele>
        <time>2020-02-08T15:09:47.000Z</time>
      </trkpt>
      <trkpt lat="45.17231" lon="5.79008">
        <ele>234.69</ele>
        <time>2020-02-08T15:09:52.000Z</time>
      </trkpt>
      <trkpt lat="45.17204" lon="5.79012">
        <ele>235.79</ele>
        <time>2020-02-08T15:09:57.000Z</time>
      </trkpt>
      <trkpt lat="45.1718" lon="5.79022">
        <ele>232.23</ele>
        <time>2020-02-08T15:10:02.000Z</time>
      </trkpt>
      <trkpt lat="45.17155" lon="5.79029">
        <ele>232.62</ele>
        <time>2020-02-08T15:10:07.000Z</time>
      </trkpt>
      <trkpt lat="45.17129" lon="5.79033">
        <ele>232.22</ele>
        <time>2020-02-08T15:10:12.000Z</time>
      </trkpt>
      <trkpt lat="45.171" lon="5.79038">
        <ele>233.12</ele>
        <time>2020-02-08T15:10:17.000Z</time>
      </trkpt>
      <trkpt lat="45.1707" lon="5.79043">
        <ele>230.21</ele>
        <time>2020-02-08T15:10:22.000Z</time>
      </trkpt>
      <trkpt lat="45.17043" lon="5.79055">
        <ele>229.52</ele>
        <time>2020-02-08T15:10:27.000Z</time>
      </trkpt>
      <trkpt lat="45.17025" lon="5.7908">
        <ele>227.54</ele>
        <time>2020-02-08T15:10:32.000Z</time>
      </trkpt>
      <trkpt lat="45.17003" lon="5.79103">
        <ele>223.08</ele>
        <time>2020-02-08T15:10:37.000Z</time>
      </trkpt>
      <trkpt lat="45.16985" lon="5.79132">
        <ele>224.8</ele>
        <time>2020-02-08T15:10:42.000Z</time>
      </trkpt>
      <trkpt lat="45.16972" lon="5.79162">
        <ele>225.2</ele>
        <time>2020-02-08T15:10:47.000Z</time>
      </trkpt>
      <trkpt lat="45.1696" lon="5.79201">
        <ele>224.75</ele>
        <time>2020-02-08T15:10:52.000Z</time>
      </trkpt>
      <trkpt lat="45.16946" lon="5.79232">
        <ele>229.44</ele>
        <time>2020-02-08T15:10:57.000Z</time>
      </trkpt>
      <trkpt lat="45.16931" lon="5.79264">
        <ele>231.65</ele>
        <time>2020-02-08T15:11:02.000Z</time>
      </trkpt>
      <trkpt lat="45.16917" lon="5.79295">
        <ele>233.38</ele>
        <time>2020-02-08T15:11:07.000Z</time>
      </trkpt>
      <trkpt lat="45.16901" lon="5.79327">
        <ele>236.51</ele>
        <time>2020-02-08T15:11:12.000Z</time>
      </trkpt>
      <trkpt lat="45.16886" lon="5.79358">
        <ele>236.36</ele>
        <time>2020-02-08T15:11:17.000Z</time>
      </trkpt>
      <trkpt lat="45.16871" lon="5.79389">
        <ele>236.08</ele>
        <time>2020-02-08T15:11:22.000Z</time>
      </trkpt>
      <trkpt lat="45.16861" lon="5.79424">
        <ele>237.17</ele>
        <time>2020-02-08T15:11:27.000Z</time>
      </trkpt>
      <trkpt lat="45.16857" lon="5.79462">
        <ele>237.22</ele>
        <time>2020-02-08T15:11:32.000Z</time>
      </trkpt>
      <trkpt lat="45.16858" lon="5.79499">
        <ele>239.14</ele>
        <time>2020-02-08T15:11:37.000Z</time>
      </trkpt>
      <trkpt lat="45.16862" lon="5.79535">
        <ele>239.77</ele>
        <time>2020-02-08T15:11:42.000Z</time>
      </trkpt>
      <trkpt lat="45.16866" lon="5.79569">
        <ele>239.92</ele>
        <time>2020-02-08T15:11:47.000Z</time>
      </trkpt>
      <trkpt lat="45.16876" lon="5.79604">
        <ele>240.89</ele>
        <time>2020-02-08T15:11:52.000Z</time>
      </trkpt>
      <trkpt lat="45.16883" lon="5.79637">
        <ele>245.67</ele>
        <time>2020-02-08T15:11:57.000Z</time>
      </trkpt>
      <trkpt lat="45.16877" lon="5.79673">
        <ele>243.15</ele>
        <time>2020-02-08T15:12:02.000Z</time>
      </trkpt>
      <trkpt lat="45.16869" lon="5.79707">
        <ele>243.44</ele>
        <time>2020-02-08T15:12:07.000Z</time>
      </trkpt>
      <trkpt lat="45.16859" lon="5.79741">
        <ele>240.52</ele>
        <time>2020-02-08T15:12:12.000Z</time>
      </trkpt>
      <trkpt lat="45.16841" lon="5.79766">
        <ele>242.26</ele>
        <time>2020-02-08T15:12:17.000Z</time>
      </trkpt>
      <trkpt lat="45.16818" lon="5.79788">
        <ele>246.69</ele>
        <time>2020-02-08T15:12:22.000Z</time>
      </trkpt>
      <trkpt lat="45.16801" lon="5.79808">
        <ele>246.49</ele>
        <time>2020-02-08T15:12:27.000Z</time>
      </trkpt>
      <trkpt lat="45.16781" lon="5.79818">
        <ele>247.17</ele>
        <time>2020-02-08T15:12:32.000Z</time>
      </trkpt>
      <trkpt lat="45.16748" lon="5.79814">
        <ele>250.62</ele>
        <time>2020-02-08T15:12:37.000Z</time>
      </trkpt>
      <trkpt lat="45.1673" lon="5.79816">
        <ele>253.21</ele>
        <time>2020-02-08T15:12:42.000Z</time>
      </trkpt>
      <trkpt lat="45.16707" lon="5.79825">
        <ele>252.63</ele>
        <time>2020-02-08T15:12:47.000Z</time>
      </trkpt>
      <trkpt lat="45.16673" lon="5.79834">
        <ele>255.62</ele>
        <time>2020-02-08T15:12:52.000Z</time>
      </trkpt>
      <trkpt lat="45.16655" lon="5.79846">
        <ele>253.29</ele>
        <time>2020-02-08T15:12:57.000Z</time>
      </trkpt>
      <trkpt lat="45.16634" lon="5.79872">
        <ele>251.58</ele>
        <time>2020-02-08T15:13:02.000Z</time>
      </trkpt>
      <trkpt lat="45.16603" lon="5.79898">
        <ele>252.62</ele>
        <time>2020-02-08T15:13:07.000Z</time>
      </trkpt>
      <trkpt lat="45.1659" lon="5.79928">
        <ele>252.16</ele>
        <time>2020-02-08T15:13:12.000Z</time>
      </trkpt>
      <trkpt lat="45.16576" lon="5.79957">
        <ele>254.07</ele>
        <time>2020-02-08T15:13:17.000Z</time>
      </trkpt>
      <trkpt lat="45.16562" lon="5.79987">
        <ele>258.01</ele>
        <time>2020-02-08T15:13:22.000Z</time>
      </trkpt>
      <trkpt lat="45.16557" lon="5.80025">
        <ele>252.35</ele>
        <time>2020-02-08T15:13:27.000Z</time>
      </trkpt>
      <trkpt lat="45.16548" lon="5.80057">
        <ele>257.45</ele>
        <time>2020-02-08T15:13:32.000Z</time>
      </trkpt>
      <trkpt lat="45.16543" lon="5.80093">
        <ele>259.38</ele>
        <time>2020-02-08T15:13:37.000Z</time>
      </trkpt>
      <trkpt lat="45.16544" lon="5.80129">
        <ele>259.86</ele>
        <time>2020-02-08T15:13:42.000Z</time>
      </trkpt>
      <trkpt lat="45.16549" lon="5.80164">
        <ele>258.76</ele>
        <time>2020-02-08T15:13:47.000Z</time>
      </trkpt>
      <trkpt lat="45.16554" lon="5.80202">
        <ele>259.14</ele>
        <time>2020-02-08T15:13:52.000Z</time>
      </trkpt>
      <trkpt lat="45.16554" lon="5.80241">
        <ele>256.53</ele>
        <time>2020-02-08T15:13:57.000Z</time>
      </trkpt>
      <trkpt lat="45.16547" lon="5.80277">
        <ele>260.15</ele>
        <time>2020-02-08T15:14:02.000Z</time>
      </trkpt>
      <trkpt lat="45.16542" lon="5.80313">
        <ele>260.64</ele>
        <time>2020-02-08T15:14:07.000Z</time>
      </trkpt>
      <trkpt lat="45.16533" lon="5.80344">
        <ele>264.94</ele>
        <time>2020-02-08T15:14:12.000Z</time>
      </trkpt>
      <trkpt lat="45.16522" lon="5.80377">
        <ele>264.42</ele>
        <time>2020-02-08T15:14:17.000Z</time>
      </trkpt>
      <trkpt lat="45.16514" lon="5.80411">
        <ele>262.75</ele>
        <time>2020-02-08T15:14:22.000Z</time>
      </trkpt>
      <trkpt lat="45.16502" lon="5.80443">
        <ele>263.65</ele>
        <time>2020-02-08T15:14:27.000Z</time>
      </trkpt>
      <trkpt lat="45.16491" lon="5.80475">
        <ele>265.38</ele>
        <time>2020-02-08T15:14:32.000Z</time>
      </trkpt>
      <trkpt lat="45.16478" lon="5.80506">
        <ele>269.06</ele>
        <time>2020-02-08T15:14:37.000Z</time>
      </trkpt>
      <trkpt lat="45.1647" lon="5.8054">
        <ele>271.01</ele>
        <time>2020-02-08T15:14:42.000Z</time>
      </trkpt>
      <trkpt lat="45.16469" lon="5.80578">
        <ele>271.46</ele>
        <time>2020-02-08T15:14:47.000Z</time>
      </trkpt>
      <trkpt lat="45.16466" lon="5.80617">
        <ele>268.64</ele>
        <time>2020-02-08T15:14:52.000Z</time>
      </trkpt>
      <trkpt lat="45.16467" lon="5.80652">
        <ele>271.7</ele>
        <time>2020-02-08T15:14:57.000Z</time>
      </trkpt>
      <trkpt lat="45.16468" lon="5.80686">
        <ele>274.74</ele>
        <time>2020-02-08T15:15:02.000Z</time>
      </trkpt>
      <trkpt lat="45.16469" lon="5.80718">
        <ele>278.44</ele>
        <time>2020-02-08T15:15:07.000Z</time>
      </trkpt>
      <trkpt lat="45.16463" lon="5.80755">
        <ele>279.54</ele>
        <time>2020-02-08T15:15:12.000Z</time>
      </trkpt>
      <trkpt lat="45.16455" lon="5.80785">
        <ele>286.1</ele>
        <time>2020-02-08T15:15:17.000Z</time>
      </trkpt>
      <trkpt lat="45.16448" lon="5.80818">
        <ele>289.57</ele>
        <time>2020-02-08T15:15:22.000Z</time>
      </trkpt>
      <trkpt lat="45.16442" lon="5.80852">
        <ele>289.36</ele>
        <time>2020-02-08T15:15:27.000Z</time>
      </trkpt>
      <trkpt lat="45.16435" lon="5.80886">
        <ele>293.78</ele>
        <time>2020-02-08T15:15:32.000Z</time>
      </trkpt>
      <trkpt lat="45.16428" lon="5.80922">
        <ele>292.11</ele>
        <time>2020-02-08T15:15:37.000Z</time>
      </trkpt>
      <trkpt lat="45.16421" lon="5.80956">
        <ele>293.67</ele>
        <time>2020-02-08T15:15:42.000Z</time>
      </trkpt>
      <trkpt lat="45.16407" lon="5.80988">
        <ele>297.38</ele>
        <time>2020-02-08T15:15:47.000Z</time>
      </trkpt>
      <trkpt lat="45.16397" lon="5.81021">
        <ele>297.16</ele>
        <time>2020-02-08T15:15:52.000Z</time>
      </trkpt>
      <trkpt lat="45.16381" lon="5.81052">
        <ele>299.32</ele>
        <time>2020-02-08T15:15:57.000Z</time>
      </trkpt>
      <trkpt lat="45.16368" lon="5.81084">
        <ele>301.44</ele>
        <time>2020-02-08T15:16:02.000Z</time>
      </trkpt>
      <trkpt lat="45.16353" lon="5.81116">
        <ele>302.21</ele>
        <time>2020-02-08T15:16:07.000Z</time>
      </trkpt>
      <trkpt lat="45.1634" lon="5.81148">
        <ele>302.36</ele>
        <time>2020-02-08T15:16:12.000Z</time>
      </trkpt>
      <trkpt lat="45.16328" lon="5.81179">
        <ele>305.68</ele>
        <time>2020-02-08T15:16:17.000Z</time>
      </trkpt>
      <trkpt lat="45.16315" lon="5.81212">
        <ele>308.83</ele>
        <time>2020-02-08T15:16:22.000Z</time>
      </trkpt>
      <trkpt lat="45.1631" lon="5.81251">
        <ele>307.78</ele>
        <time>2020-02-08T15:16:27.000Z</time>
      </trkpt>
      <trkpt lat="45.16303" lon="5.81284">
        <ele>310.1</ele>
        <time>2020-02-08T15:16:32.000Z</time>
      </trkpt>
      <trkpt lat="45.16297" lon="5.81317">
        <ele>316.63</ele>
        <time>2020-02-08T15:16:37.000Z</time>
      </trkpt>
      <trkpt lat="45.16292" lon="5.81354">
        <ele>317.49</ele>
        <time>2020-02-08T15:16:42.000Z</time>
      </trkpt>
      <trkpt lat="45.1628" lon="5.81387">
        <ele>314.46</ele>
        <time>2020-02-08T15:16:47.000Z</time>
      </trkpt>
      <trkpt lat="45.16264" lon="5.81416">
        <ele>315.02</ele>
        <time>2020-02-08T15:16:52.000Z</time>
      </trkpt>
      <trkpt lat="45.16252" lon="5.81444">
        <ele>318.49</ele>
        <time>2020-02-08T15:16:57.000Z</time>
      </trkpt>
      <trkpt lat="45.1624" lon="5.81474">
        <ele>322</ele>
        <time>2020-02-08T15:17:02.000Z</time>
      </trkpt>
      <trkpt lat="45.16227" lon="5.81505">
        <ele>324.42</ele>
        <time>2020-02-08T15:17:07.000Z</time>
      </trkpt>
      <trkpt lat="45.16213" lon="5.81534">
        <ele>324.5</ele>
        <time>2020-02-08T15:17:12.000Z</time>
      </trkpt>
      <trkpt lat="45.162" lon="5.81563">
        <ele>326.86</ele>
        <time>2020-02-08T15:17:17.000Z</time>
      </trkpt>
      <trkpt lat="45.16191" lon="5.81595">
        <ele>326.35</ele>
        <time>2020-02-08T15:17:22.000Z</time>
      </trkpt>
      <trkpt lat="45.16177" lon="5.81625">
        <ele>328.05</ele>
        <time>2020-02-08T15:17:27.000Z</time>
      </trkpt>
      <trkpt lat="45.16158" lon="5.81651">
        <ele>330.39</ele>
        <time>2020-02-08T15:17:32.000Z</time>
      </trkpt>
      <trkpt lat="45.1614" lon="5.81672">
        <ele>332.34</ele>
        <time>2020-02-08T15:17:37.000Z</time>
      </trkpt>
      <trkpt lat="45.16119" lon="5.81689">
        <ele>334.75</ele>
        <time>2020-02-08T15:17:42.000Z</time>
      </trkpt>
      <trkpt lat="45.16094" lon="5.81701">
        <ele>336.47</ele>
        <time>2020-02-08T15:17:47.000Z</time>
      </trkpt>
      <trkpt lat="45.16072" lon="5.81715">
        <ele>337.37</ele>
        <time>2020-02-08T15:17:52.000Z</time>
      </trkpt>
      <trkpt lat="45.1605" lon="5.81732">
        <ele>339.15</ele>
        <time>2020-02-08T15:17:57.000Z</time>
      </trkpt>
      <trkpt lat="45.16029" lon="5.81753">
        <ele>342.48</ele>
        <time>2020-02-08T15:18:02.000Z</time>
      </trkpt>
      <trkpt lat="45.1601" lon="5.81775">
        <ele>343.12</ele>
        <time>2020-02-08T15:18:07.000Z</time>
      </trkpt>
      <trkpt lat="45.15989" lon="5.818">
        <ele>342.07</ele>
        <time>2020-02-08T15:18:12.000Z</time>
      </trkpt>
      <trkpt lat="45.1597" lon="5.81826">
        <ele>344.79</ele>
        <time>2020-02-08T15:18:17.000Z</time>
      </trkpt>
      <trkpt lat="45.15948" lon="5.81849">
        <ele>348.33</ele>
        <time>2020-02-08T15:18:22.000Z</time>
      </trkpt>
      <trkpt lat="45.15924" lon="5.81865">
        <ele>350.75</ele>
        <time>2020-02-08T15:18:27.000Z</time>
      </trkpt>
      <trkpt lat="45.15901" lon="5.81888">
        <ele>352.31</ele>
        <time>2020-02-08T15:18:32.000Z</time>
      </trkpt>
      <trkpt lat="45.15881" lon="5.81917">
        <ele>349.19</ele>
        <time>2020-02-08T15:18:37.000Z</time>
      </trkpt>
      <trkpt lat="45.1587" lon="5.81948">
        <ele>347.22</ele>
        <time>2020-02-08T15:18:42.000Z</time>
      </trkpt>
      <trkpt lat="45.15861" lon="5.81982">
        <ele>346.95</ele>
        <time>2020-02-08T15:18:47.000Z</time>
      </trkpt>
      <trkpt lat="45.15844" lon="5.82009">
        <ele>347.41</ele>
        <time>2020-02-08T15:18:52.000Z</time>
      </trkpt>
      <trkpt lat="45.15829" lon="5.82037">
        <ele>348.69</ele>
        <time>2020-02-08T15:18:57.000Z</time>
      </trkpt>
      <trkpt lat="45.15814" lon="5.82065">
        <ele>349.91</ele>
        <time>2020-02-08T15:19:02.000Z</time>
      </trkpt>
      <trkpt lat="45.15795" lon="5.82094">
        <ele>351.63</ele>
        <time>2020-02-08T15:19:07.000Z</time>
      </trkpt>
      <trkpt lat="45.15779" lon="5.82125">
        <ele>349.2</ele>
        <time>2020-02-08T15:19:12.000Z</time>
      </trkpt>
      <trkpt lat="45.15762" lon="5.82155">
        <ele>345.29</ele>
        <time>2020-02-08T15:19:17.000Z</time>
      </trkpt>
      <trkpt lat="45.15746" lon="5.82187">
        <ele>347.89</ele>
        <time>2020-02-08T15:19:22.000Z</time>
      </trkpt>
      <trkpt lat="45.1573" lon="5.82222">
        <ele>346.05</ele>
        <time>2020-02-08T15:19:27.000Z</time>
      </trkpt>
      <trkpt lat="45.15713" lon="5.82255">
        <ele>347.65</ele>
        <time>2020-02-08T15:19:32.000Z</time>
      </trkpt>
      <trkpt lat="45.157" lon="5.82282">
        <ele>345.48</ele>
        <time>2020-02-08T15:19:37.000Z</time>
      </trkpt>
      <trkpt lat="45.15686" lon="5.82304">
        <ele>343.93</ele>
        <time>2020-02-08T15:19:42.000Z</time>
      </trkpt>
      <trkpt lat="45.15679" lon="5.82321">
        <ele>339.7</ele>
        <time>2020-02-08T15:19:47.000Z</time>
      </trkpt>
      <trkpt lat="45.15672" lon="5.82333">
        <ele>335.9</ele>
        <time>2020-02-08T15:19:56.000Z</time>
      </trkpt>
      <trkpt lat="45.15667" lon="5.8235">
        <ele>335.93</ele>
        <time>2020-02-08T15:20:01.000Z</time>
      </trkpt>
      <trkpt lat="45.1566" lon="5.82365">
        <ele>335.85</ele>
        <time>2020-02-08T15:20:06.000Z</time>
      </trkpt>
      <trkpt lat="45.15666" lon="5.82355">
        <ele>344.58</ele>
        <time>2020-02-08T15:20:52.000Z</time>
      </trkpt>
      <trkpt lat="45.15667" lon="5.82368">
        <ele>345.08</ele>
        <time>2020-02-08T15:21:29.000Z</time>
      </trkpt>
      <trkpt lat="45.15662" lon="5.82356">
        <ele>342.19</ele>
        <time>2020-02-08T15:22:27.000Z</time>
      </trkpt>
      <trkpt lat="45.15669" lon="5.82347">
        <ele>358.64</ele>
        <time>2020-02-08T15:34:46.000Z</time>
      </trkpt>
      <trkpt lat="45.15659" lon="5.8234">
        <ele>358.87</ele>
        <time>2020-02-08T15:34:54.000Z</time>
      </trkpt>
      <trkpt lat="45.15648" lon="5.82328">
        <ele>364.28</ele>
        <time>2020-02-08T15:34:59.000Z</time>
      </trkpt>
      <trkpt lat="45.15701" lon="5.8235">
        <ele>364.99</ele>
        <time>2020-02-08T15:35:04.000Z</time>
      </trkpt>
      <trkpt lat="45.15698" lon="5.82387">
        <ele>364.28</ele>
        <time>2020-02-08T15:35:09.000Z</time>
      </trkpt>
      <trkpt lat="45.15678" lon="5.82368">
        <ele>359.44</ele>
        <time>2020-02-08T15:35:14.000Z</time>
      </trkpt>
      <trkpt lat="45.15669" lon="5.82361">
        <ele>354.83</ele>
        <time>2020-02-08T15:35:23.000Z</time>
      </trkpt>
      <trkpt lat="45.15661" lon="5.8235">
        <ele>353.14</ele>
        <time>2020-02-08T15:35:28.000Z</time>
      </trkpt>
      <trkpt lat="45.15646" lon="5.82346">
        <ele>347.29</ele>
        <time>2020-02-08T15:35:33.000Z</time>
      </trkpt>
      <trkpt lat="45.15652" lon="5.82356">
        <ele>350.36</ele>
        <time>2020-02-08T15:35:44.000Z</time>
      </trkpt>
      <trkpt lat="45.1566" lon="5.82347">
        <ele>355.84</ele>
        <time>2020-02-08T15:37:42.000Z</time>
      </trkpt>
      <trkpt lat="45.15665" lon="5.82331">
        <ele>358.32</ele>
        <time>2020-02-08T15:37:47.000Z</time>
      </trkpt>
      <trkpt lat="45.15654" lon="5.8234">
        <ele>362.48</ele>
        <time>2020-02-08T15:38:03.000Z</time>
      </trkpt>
      <trkpt lat="45.15636" lon="5.82364">
        <ele>362.45</ele>
        <time>2020-02-08T15:38:08.000Z</time>
      </trkpt>
      <trkpt lat="45.15619" lon="5.82385">
        <ele>363.83</ele>
        <time>2020-02-08T15:38:13.000Z</time>
      </trkpt>
      <trkpt lat="45.15599" lon="5.82401">
        <ele>363.3</ele>
        <time>2020-02-08T15:38:18.000Z</time>
      </trkpt>
      <trkpt lat="45.15577" lon="5.82424">
        <ele>361.97</ele>
        <time>2020-02-08T15:38:23.000Z</time>
      </trkpt>
      <trkpt lat="45.1556" lon="5.8244">
        <ele>363.29</ele>
        <time>2020-02-08T15:38:28.000Z</time>
      </trkpt>
      <trkpt lat="45.15544" lon="5.82469">
        <ele>364.78</ele>
        <time>2020-02-08T15:38:33.000Z</time>
      </trkpt>
      <trkpt lat="45.15522" lon="5.82496">
        <ele>364.17</ele>
        <time>2020-02-08T15:38:38.000Z</time>
      </trkpt>
      <trkpt lat="45.15497" lon="5.82523">
        <ele>360.6</ele>
        <time>2020-02-08T15:38:43.000Z</time>
      </trkpt>
      <trkpt lat="45.15483" lon="5.8255">
        <ele>359.66</ele>
        <time>2020-02-08T15:38:48.000Z</time>
      </trkpt>
      <trkpt lat="45.15466" lon="5.82575">
        <ele>363.4</ele>
        <time>2020-02-08T15:38:53.000Z</time>
      </trkpt>
      <trkpt lat="45.15444" lon="5.82595">
        <ele>357.42</ele>
        <time>2020-02-08T15:38:58.000Z</time>
      </trkpt>
      <trkpt lat="45.15417" lon="5.82602">
        <ele>361.66</ele>
        <time>2020-02-08T15:39:03.000Z</time>
      </trkpt>
      <trkpt lat="45.15389" lon="5.82604">
        <ele>362.53</ele>
        <time>2020-02-08T15:39:08.000Z</time>
      </trkpt>
      <trkpt lat="45.15361" lon="5.82599">
        <ele>358.21</ele>
        <time>2020-02-08T15:39:13.000Z</time>
      </trkpt>
      <trkpt lat="45.15343" lon="5.82585">
        <ele>359.95</ele>
        <time>2020-02-08T15:39:18.000Z</time>
      </trkpt>
      <trkpt lat="45.15324" lon="5.82562">
        <ele>362.83</ele>
        <time>2020-02-08T15:39:23.000Z</time>
      </trkpt>
      <trkpt lat="45.15297" lon="5.82541">
        <ele>361.72</ele>
        <time>2020-02-08T15:39:28.000Z</time>
      </trkpt>
      <trkpt lat="45.15273" lon="5.82522">
        <ele>361.16</ele>
        <time>2020-02-08T15:39:33.000Z</time>
      </trkpt>
      <trkpt lat="45.15248" lon="5.82502">
        <ele>362.37</ele>
        <time>2020-02-08T15:39:38.000Z</time>
      </trkpt>
      <trkpt lat="45.15221" lon="5.82482">
        <ele>366.52</ele>
        <time>2020-02-08T15:39:43.000Z</time>
      </trkpt>
      <trkpt lat="45.15198" lon="5.82468">
        <ele>367.63</ele>
        <time>2020-02-08T15:39:48.000Z</time>
      </trkpt>
      <trkpt lat="45.15169" lon="5.82456">
        <ele>366.6</ele>
        <time>2020-02-08T15:39:53.000Z</time>
      </trkpt>
      <trkpt lat="45.15143" lon="5.82443">
        <ele>366.47</ele>
        <time>2020-02-08T15:39:58.000Z</time>
      </trkpt>
      <trkpt lat="45.15112" lon="5.82442">
        <ele>369.41</ele>
        <time>2020-02-08T15:40:03.000Z</time>
      </trkpt>
      <trkpt lat="45.15084" lon="5.82442">
        <ele>375.54</ele>
        <time>2020-02-08T15:40:08.000Z</time>
      </trkpt>
      <trkpt lat="45.15059" lon="5.82445">
        <ele>377.84</ele>
        <time>2020-02-08T15:40:13.000Z</time>
      </trkpt>
      <trkpt lat="45.15031" lon="5.82457">
        <ele>375.13</ele>
        <time>2020-02-08T15:40:18.000Z</time>
      </trkpt>
      <trkpt lat="45.15003" lon="5.82471">
        <ele>375.01</ele>
        <time>2020-02-08T15:40:23.000Z</time>
      </trkpt>
      <trkpt lat="45.14982" lon="5.8249">
        <ele>376.71</ele>
        <time>2020-02-08T15:40:28.000Z</time>
      </trkpt>
      <trkpt lat="45.14964" lon="5.82513">
        <ele>377.01</ele>
        <time>2020-02-08T15:40:33.000Z</time>
      </trkpt>
      <trkpt lat="45.14948" lon="5.8254">
        <ele>380.9</ele>
        <time>2020-02-08T15:40:38.000Z</time>
      </trkpt>
      <trkpt lat="45.1494" lon="5.82574">
        <ele>383.59</ele>
        <time>2020-02-08T15:40:43.000Z</time>
      </trkpt>
      <trkpt lat="45.14923" lon="5.82607">
        <ele>382.95</ele>
        <time>2020-02-08T15:40:48.000Z</time>
      </trkpt>
      <trkpt lat="45.14908" lon="5.82636">
        <ele>381.22</ele>
        <time>2020-02-08T15:40:53.000Z</time>
      </trkpt>
      <trkpt lat="45.14898" lon="5.82668">
        <ele>374.91</ele>
        <time>2020-02-08T15:40:58.000Z</time>
      </trkpt>
      <trkpt lat="45.14878" lon="5.82703">
        <ele>373.11</ele>
        <time>2020-02-08T15:41:03.000Z</time>
      </trkpt>
      <trkpt lat="45.14861" lon="5.82731">
        <ele>378.07</ele>
        <time>2020-02-08T15:41:08.000Z</time>
      </trkpt>
      <trkpt lat="45.14842" lon="5.82757">
        <ele>380.99</ele>
        <time>2020-02-08T15:41:13.000Z</time>
      </trkpt>
      <trkpt lat="45.14821" lon="5.82779">
        <ele>381.45</ele>
        <time>2020-02-08T15:41:18.000Z</time>
      </trkpt>
      <trkpt lat="45.14801" lon="5.82796">
        <ele>376.95</ele>
        <time>2020-02-08T15:41:23.000Z</time>
      </trkpt>
      <trkpt lat="45.14769" lon="5.82817">
        <ele>377.88</ele>
        <time>2020-02-08T15:41:28.000Z</time>
      </trkpt>
      <trkpt lat="45.14745" lon="5.82834">
        <ele>382.4</ele>
        <time>2020-02-08T15:41:33.000Z</time>
      </trkpt>
      <trkpt lat="45.1472" lon="5.82846">
        <ele>381.76</ele>
        <time>2020-02-08T15:41:38.000Z</time>
      </trkpt>
      <trkpt lat="45.14696" lon="5.82848">
        <ele>383.49</ele>
        <time>2020-02-08T15:41:43.000Z</time>
      </trkpt>
      <trkpt lat="45.14671" lon="5.82852">
        <ele>384.75</ele>
        <time>2020-02-08T15:41:48.000Z</time>
      </trkpt>
      <trkpt lat="45.14645" lon="5.82857">
        <ele>385.55</ele>
        <time>2020-02-08T15:41:53.000Z</time>
      </trkpt>
      <trkpt lat="45.14611" lon="5.82856">
        <ele>384.2</ele>
        <time>2020-02-08T15:41:58.000Z</time>
      </trkpt>
      <trkpt lat="45.14585" lon="5.82854">
        <ele>386.47</ele>
        <time>2020-02-08T15:42:03.000Z</time>
      </trkpt>
      <trkpt lat="45.1456" lon="5.82857">
        <ele>389.28</ele>
        <time>2020-02-08T15:42:08.000Z</time>
      </trkpt>
      <trkpt lat="45.14536" lon="5.82858">
        <ele>390.32</ele>
        <time>2020-02-08T15:42:13.000Z</time>
      </trkpt>
      <trkpt lat="45.14509" lon="5.82857">
        <ele>391.1</ele>
        <time>2020-02-08T15:42:18.000Z</time>
      </trkpt>
      <trkpt lat="45.14492" lon="5.82858">
        <ele>389.95</ele>
        <time>2020-02-08T15:42:23.000Z</time>
      </trkpt>
      <trkpt lat="45.14474" lon="5.82863">
        <ele>389.94</ele>
        <time>2020-02-08T15:42:28.000Z</time>
      </trkpt>
      <trkpt lat="45.14453" lon="5.8287">
        <ele>388.55</ele>
        <time>2020-02-08T15:42:33.000Z</time>
      </trkpt>
      <trkpt lat="45.14442" lon="5.82876">
        <ele>388.09</ele>
        <time>2020-02-08T15:42:38.000Z</time>
      </trkpt>
      <trkpt lat="45.14434" lon="5.82881">
        <ele>387.77</ele>
        <time>2020-02-08T15:42:43.000Z</time>
      </trkpt>
      <trkpt lat="45.14425" lon="5.82887">
        <ele>390.75</ele>
        <time>2020-02-08T15:42:49.000Z</time>
      </trkpt>
      <trkpt lat="45.14411" lon="5.82898">
        <ele>391.09</ele>
        <time>2020-02-08T15:42:54.000Z</time>
      </trkpt>
      <trkpt lat="45.14383" lon="5.82914">
        <ele>393.09</ele>
        <time>2020-02-08T15:42:59.000Z</time>
      </trkpt>
      <trkpt lat="45.14359" lon="5.82924">
        <ele>392.35</ele>
        <time>2020-02-08T15:43:04.000Z</time>
      </trkpt>
      <trkpt lat="45.14332" lon="5.82938">
        <ele>394.11</ele>
        <time>2020-02-08T15:43:09.000Z</time>
      </trkpt>
      <trkpt lat="45.1432" lon="5.82934">
        <ele>394.95</ele>
        <time>2020-02-08T15:43:14.000Z</time>
      </trkpt>
      <trkpt lat="45.14309" lon="5.8293">
        <ele>397.83</ele>
        <time>2020-02-08T15:43:19.000Z</time>
      </trkpt>
      <trkpt lat="45.14291" lon="5.82925">
        <ele>402.48</ele>
        <time>2020-02-08T15:43:24.000Z</time>
      </trkpt>
      <trkpt lat="45.14278" lon="5.82923">
        <ele>402.62</ele>
        <time>2020-02-08T15:43:29.000Z</time>
      </trkpt>
      <trkpt lat="45.14264" lon="5.82919">
        <ele>401.52</ele>
        <time>2020-02-08T15:43:34.000Z</time>
      </trkpt>
      <trkpt lat="45.14245" lon="5.82912">
        <ele>405.71</ele>
        <time>2020-02-08T15:43:39.000Z</time>
      </trkpt>
      <trkpt lat="45.14226" lon="5.82906">
        <ele>404.03</ele>
        <time>2020-02-08T15:43:44.000Z</time>
      </trkpt>
      <trkpt lat="45.14208" lon="5.82896">
        <ele>399.5</ele>
        <time>2020-02-08T15:43:49.000Z</time>
      </trkpt>
      <trkpt lat="45.14191" lon="5.8289">
        <ele>400.34</ele>
        <time>2020-02-08T15:43:54.000Z</time>
      </trkpt>
      <trkpt lat="45.14181" lon="5.82884">
        <ele>400.87</ele>
        <time>2020-02-08T15:44:02.000Z</time>
      </trkpt>
      <trkpt lat="45.14169" lon="5.82882">
        <ele>401.89</ele>
        <time>2020-02-08T15:44:07.000Z</time>
      </trkpt>
      <trkpt lat="45.14156" lon="5.8288">
        <ele>403.18</ele>
        <time>2020-02-08T15:44:12.000Z</time>
      </trkpt>
      <trkpt lat="45.14144" lon="5.82879">
        <ele>404.44</ele>
        <time>2020-02-08T15:44:17.000Z</time>
      </trkpt>
      <trkpt lat="45.14131" lon="5.82873">
        <ele>404.91</ele>
        <time>2020-02-08T15:44:22.000Z</time>
      </trkpt>
      <trkpt lat="45.14121" lon="5.82869">
        <ele>406.71</ele>
        <time>2020-02-08T15:44:28.000Z</time>
      </trkpt>
      <trkpt lat="45.14109" lon="5.8286">
        <ele>404.43</ele>
        <time>2020-02-08T15:44:33.000Z</time>
      </trkpt>
      <trkpt lat="45.14093" lon="5.82854">
        <ele>404.64</ele>
        <time>2020-02-08T15:44:38.000Z</time>
      </trkpt>
      <trkpt lat="45.14078" lon="5.82846">
        <ele>403.47</ele>
        <time>2020-02-08T15:44:43.000Z</time>
      </trkpt>
      <trkpt lat="45.14065" lon="5.82839">
        <ele>405.13</ele>
        <time>2020-02-08T15:44:48.000Z</time>
      </trkpt>
      <trkpt lat="45.1405" lon="5.82835">
        <ele>405.38</ele>
        <time>2020-02-08T15:44:53.000Z</time>
      </trkpt>
      <trkpt lat="45.14023" lon="5.82814">
        <ele>407.18</ele>
        <time>2020-02-08T15:44:58.000Z</time>
      </trkpt>
      <trkpt lat="45.14004" lon="5.82794">
        <ele>410.38</ele>
        <time>2020-02-08T15:45:03.000Z</time>
      </trkpt>
      <trkpt lat="45.13983" lon="5.82773">
        <ele>410.87</ele>
        <time>2020-02-08T15:45:08.000Z</time>
      </trkpt>
      <trkpt lat="45.13965" lon="5.82751">
        <ele>407</ele>
        <time>2020-02-08T15:45:13.000Z</time>
      </trkpt>
      <trkpt lat="45.13943" lon="5.82736">
        <ele>406.43</ele>
        <time>2020-02-08T15:45:18.000Z</time>
      </trkpt>
      <trkpt lat="45.13926" lon="5.82717">
        <ele>407.65</ele>
        <time>2020-02-08T15:45:23.000Z</time>
      </trkpt>
      <trkpt lat="45.13907" lon="5.82694">
        <ele>407.36</ele>
        <time>2020-02-08T15:45:28.000Z</time>
      </trkpt>
      <trkpt lat="45.13881" lon="5.8267">
        <ele>400.13</ele>
        <time>2020-02-08T15:45:33.000Z</time>
      </trkpt>
      <trkpt lat="45.13858" lon="5.82653">
        <ele>403.26</ele>
        <time>2020-02-08T15:45:38.000Z</time>
      </trkpt>
      <trkpt lat="45.13836" lon="5.82633">
        <ele>402.1</ele>
        <time>2020-02-08T15:45:43.000Z</time>
      </trkpt>
      <trkpt lat="45.13817" lon="5.82611">
        <ele>404.6</ele>
        <time>2020-02-08T15:45:48.000Z</time>
      </trkpt>
      <trkpt lat="45.13799" lon="5.82598">
        <ele>403.14</ele>
        <time>2020-02-08T15:45:53.000Z</time>
      </trkpt>
      <trkpt lat="45.13787" lon="5.8259">
        <ele>406.76</ele>
        <time>2020-02-08T15:45:58.000Z</time>
      </trkpt>
      <trkpt lat="45.13758" lon="5.82602">
        <ele>417.73</ele>
        <time>2020-02-08T16:06:19.000Z</time>
      </trkpt>
      <trkpt lat="45.13767" lon="5.82606">
        <ele>418.02</ele>
        <time>2020-02-08T16:06:33.000Z</time>
      </trkpt>
      <trkpt lat="45.13764" lon="5.82591">
        <ele>418.72</ele>
        <time>2020-02-08T16:07:31.000Z</time>
      </trkpt>
      <trkpt lat="45.13752" lon="5.82569">
        <ele>422.85</ele>
        <time>2020-02-08T16:07:36.000Z</time>
      </trkpt>
      <trkpt lat="45.13726" lon="5.82547">
        <ele>418.41</ele>
        <time>2020-02-08T16:07:41.000Z</time>
      </trkpt>
      <trkpt lat="45.13701" lon="5.82526">
        <ele>416.16</ele>
        <time>2020-02-08T16:07:46.000Z</time>
      </trkpt>
      <trkpt lat="45.13681" lon="5.82507">
        <ele>420.07</ele>
        <time>2020-02-08T16:07:51.000Z</time>
      </trkpt>
      <trkpt lat="45.13661" lon="5.825">
        <ele>417.76</ele>
        <time>2020-02-08T16:07:56.000Z</time>
      </trkpt>
      <trkpt lat="45.1365" lon="5.82496">
        <ele>416.32</ele>
        <time>2020-02-08T16:08:01.000Z</time>
      </trkpt>
      <trkpt lat="45.13638" lon="5.82498">
        <ele>419.55</ele>
        <time>2020-02-08T16:08:06.000Z</time>
      </trkpt>
      <trkpt lat="45.13623" lon="5.82492">
        <ele>422.18</ele>
        <time>2020-02-08T16:08:11.000Z</time>
      </trkpt>
      <trkpt lat="45.13613" lon="5.82512">
        <ele>421.25</ele>
        <time>2020-02-08T16:08:16.000Z</time>
      </trkpt>
      <trkpt lat="45.136" lon="5.82512">
        <ele>418.32</ele>
        <time>2020-02-08T16:08:21.000Z</time>
      </trkpt>
      <trkpt lat="45.13592" lon="5.82498">
        <ele>418.76</ele>
        <time>2020-02-08T16:08:26.000Z</time>
      </trkpt>
      <trkpt lat="45.13579" lon="5.82503">
        <ele>418.28</ele>
        <time>2020-02-08T16:08:31.000Z</time>
      </trkpt>
      <trkpt lat="45.13569" lon="5.82508">
        <ele>419.98</ele>
        <time>2020-02-08T16:08:36.000Z</time>
      </trkpt>
      <trkpt lat="45.13556" lon="5.82519">
        <ele>420.34</ele>
        <time>2020-02-08T16:08:41.000Z</time>
      </trkpt>
      <trkpt lat="45.13548" lon="5.82529">
        <ele>422.88</ele>
        <time>2020-02-08T16:08:47.000Z</time>
      </trkpt>
      <trkpt lat="45.13535" lon="5.8254">
        <ele>422.04</ele>
        <time>2020-02-08T16:08:52.000Z</time>
      </trkpt>
      <trkpt lat="45.13526" lon="5.82541">
        <ele>423.76</ele>
        <time>2020-02-08T16:08:57.000Z</time>
      </trkpt>
      <trkpt lat="45.13517" lon="5.82546">
        <ele>421.02</ele>
        <time>2020-02-08T16:09:03.000Z</time>
      </trkpt>
      <trkpt lat="45.13506" lon="5.8255">
        <ele>416.9</ele>
        <time>2020-02-08T16:09:09.000Z</time>
      </trkpt>
      <trkpt lat="45.13486" lon="5.82558">
        <ele>414.52</ele>
        <time>2020-02-08T16:09:14.000Z</time>
      </trkpt>
      <trkpt lat="45.1347" lon="5.82558">
        <ele>414.58</ele>
        <time>2020-02-08T16:09:19.000Z</time>
      </trkpt>
      <trkpt lat="45.13461" lon="5.82558">
        <ele>415.55</ele>
        <time>2020-02-08T16:09:27.000Z</time>
      </trkpt>
      <trkpt lat="45.13444" lon="5.82558">
        <ele>416.4</ele>
        <time>2020-02-08T16:09:32.000Z</time>
      </trkpt>
      <trkpt lat="45.13426" lon="5.82547">
        <ele>414.58</ele>
        <time>2020-02-08T16:09:37.000Z</time>
      </trkpt>
      <trkpt lat="45.1341" lon="5.82534">
        <ele>414.47</ele>
        <time>2020-02-08T16:09:42.000Z</time>
      </trkpt>
      <trkpt lat="45.13391" lon="5.82525">
        <ele>412.94</ele>
        <time>2020-02-08T16:09:47.000Z</time>
      </trkpt>
      <trkpt lat="45.13368" lon="5.82505">
        <ele>414.21</ele>
        <time>2020-02-08T16:09:52.000Z</time>
      </trkpt>
      <trkpt lat="45.13348" lon="5.82487">
        <ele>413.5</ele>
        <time>2020-02-08T16:09:57.000Z</time>
      </trkpt>
      <trkpt lat="45.13321" lon="5.82482">
        <ele>413.19</ele>
        <time>2020-02-08T16:10:02.000Z</time>
      </trkpt>
      <trkpt lat="45.13293" lon="5.82489">
        <ele>413.56</ele>
        <time>2020-02-08T16:10:07.000Z</time>
      </trkpt>
      <trkpt lat="45.13268" lon="5.825">
        <ele>409.42</ele>
        <time>2020-02-08T16:10:12.000Z</time>
      </trkpt>
      <trkpt lat="45.13241" lon="5.82504">
        <ele>410.86</ele>
        <time>2020-02-08T16:10:17.000Z</time>
      </trkpt>
      <trkpt lat="45.13226" lon="5.82506">
        <ele>413.79</ele>
        <time>2020-02-08T16:10:22.000Z</time>
      </trkpt>
      <trkpt lat="45.13204" lon="5.82516">
        <ele>414.11</ele>
        <time>2020-02-08T16:10:27.000Z</time>
      </trkpt>
      <trkpt lat="45.13186" lon="5.8252">
        <ele>417.73</ele>
        <time>2020-02-08T16:10:32.000Z</time>
      </trkpt>
      <trkpt lat="45.13167" lon="5.82521">
        <ele>421.08</ele>
        <time>2020-02-08T16:10:37.000Z</time>
      </trkpt>
      <trkpt lat="45.13146" lon="5.82521">
        <ele>423.89</ele>
        <time>2020-02-08T16:10:42.000Z</time>
      </trkpt>
      <trkpt lat="45.13122" lon="5.82523">
        <ele>427.04</ele>
        <time>2020-02-08T16:10:47.000Z</time>
      </trkpt>
      <trkpt lat="45.13101" lon="5.82523">
        <ele>429.88</ele>
        <time>2020-02-08T16:10:52.000Z</time>
      </trkpt>
      <trkpt lat="45.13085" lon="5.82533">
        <ele>433.32</ele>
        <time>2020-02-08T16:10:57.000Z</time>
      </trkpt>
      <trkpt lat="45.13065" lon="5.82543">
        <ele>431.48</ele>
        <time>2020-02-08T16:11:02.000Z</time>
      </trkpt>
      <trkpt lat="45.13046" lon="5.8255">
        <ele>432.19</ele>
        <time>2020-02-08T16:11:07.000Z</time>
      </trkpt>
      <trkpt lat="45.13033" lon="5.82556">
        <ele>432.85</ele>
        <time>2020-02-08T16:11:12.000Z</time>
      </trkpt>
      <trkpt lat="45.13018" lon="5.82564">
        <ele>431.93</ele>
        <time>2020-02-08T16:11:17.000Z</time>
      </trkpt>
      <trkpt lat="45.12998" lon="5.8258">
        <ele>429.5</ele>
        <time>2020-02-08T16:11:22.000Z</time>
      </trkpt>
      <trkpt lat="45.12978" lon="5.8259">
        <ele>435.34</ele>
        <time>2020-02-08T16:11:27.000Z</time>
      </trkpt>
      <trkpt lat="45.12959" lon="5.82599">
        <ele>439.13</ele>
        <time>2020-02-08T16:11:32.000Z</time>
      </trkpt>
      <trkpt lat="45.12941" lon="5.8261">
        <ele>441.7</ele>
        <time>2020-02-08T16:11:37.000Z</time>
      </trkpt>
      <trkpt lat="45.12922" lon="5.8262">
        <ele>443.43</ele>
        <time>2020-02-08T16:11:42.000Z</time>
      </trkpt>
      <trkpt lat="45.12908" lon="5.82628">
        <ele>442.73</ele>
        <time>2020-02-08T16:11:47.000Z</time>
      </trkpt>
      <trkpt lat="45.12898" lon="5.82637">
        <ele>444.51</ele>
        <time>2020-02-08T16:11:52.000Z</time>
      </trkpt>
      <trkpt lat="45.12891" lon="5.82627">
        <ele>447.28</ele>
        <time>2020-02-08T16:12:25.000Z</time>
      </trkpt>
      <trkpt lat="45.12899" lon="5.82635">
        <ele>455.31</ele>
        <time>2020-02-08T16:13:26.000Z</time>
      </trkpt>
      <trkpt lat="45.1291" lon="5.82651">
        <ele>456.35</ele>
        <time>2020-02-08T16:13:31.000Z</time>
      </trkpt>
      <trkpt lat="45.12903" lon="5.82671">
        <ele>454.47</ele>
        <time>2020-02-08T16:13:36.000Z</time>
      </trkpt>
      <trkpt lat="45.129" lon="5.82696">
        <ele>454.76</ele>
        <time>2020-02-08T16:13:41.000Z</time>
      </trkpt>
      <trkpt lat="45.12902" lon="5.82709">
        <ele>457.42</ele>
        <time>2020-02-08T16:13:56.000Z</time>
      </trkpt>
      <trkpt lat="45.12905" lon="5.82728">
        <ele>458.34</ele>
        <time>2020-02-08T16:14:01.000Z</time>
      </trkpt>
      <trkpt lat="45.12908" lon="5.82754">
        <ele>459.66</ele>
        <time>2020-02-08T16:14:06.000Z</time>
      </trkpt>
      <trkpt lat="45.1291" lon="5.82775">
        <ele>460.61</ele>
        <time>2020-02-08T16:14:11.000Z</time>
      </trkpt>
      <trkpt lat="45.12913" lon="5.82795">
        <ele>459.34</ele>
        <time>2020-02-08T16:14:16.000Z</time>
      </trkpt>
      <trkpt lat="45.12925" lon="5.82808">
        <ele>459.89</ele>
        <time>2020-02-08T16:14:21.000Z</time>
      </trkpt>
      <trkpt lat="45.12936" lon="5.82823">
        <ele>460.13</ele>
        <time>2020-02-08T16:14:26.000Z</time>
      </trkpt>
      <trkpt lat="45.12949" lon="5.82837">
        <ele>463.54</ele>
        <time>2020-02-08T16:14:31.000Z</time>
      </trkpt>
      <trkpt lat="45.12955" lon="5.82851">
        <ele>463.06</ele>
        <time>2020-02-08T16:14:36.000Z</time>
      </trkpt>
      <trkpt lat="45.12965" lon="5.82867">
        <ele>464.34</ele>
        <time>2020-02-08T16:14:41.000Z</time>
      </trkpt>
      <trkpt lat="45.12977" lon="5.82887">
        <ele>466.62</ele>
        <time>2020-02-08T16:14:46.000Z</time>
      </trkpt>
      <trkpt lat="45.12988" lon="5.82902">
        <ele>466.98</ele>
        <time>2020-02-08T16:14:51.000Z</time>
      </trkpt>
      <trkpt lat="45.13001" lon="5.82913">
        <ele>469.17</ele>
        <time>2020-02-08T16:14:56.000Z</time>
      </trkpt>
      <trkpt lat="45.13016" lon="5.82923">
        <ele>471.2</ele>
        <time>2020-02-08T16:15:01.000Z</time>
      </trkpt>
      <trkpt lat="45.13031" lon="5.82937">
        <ele>473.51</ele>
        <time>2020-02-08T16:15:06.000Z</time>
      </trkpt>
      <trkpt lat="45.13044" lon="5.82947">
        <ele>473.26</ele>
        <time>2020-02-08T16:15:11.000Z</time>
      </trkpt>
      <trkpt lat="45.13058" lon="5.82956">
        <ele>473.61</ele>
        <time>2020-02-08T16:15:16.000Z</time>
      </trkpt>
      <trkpt lat="45.13072" lon="5.82959">
        <ele>472.6</ele>
        <time>2020-02-08T16:15:21.000Z</time>
      </trkpt>
      <trkpt lat="45.13086" lon="5.82972">
        <ele>475.61</ele>
        <time>2020-02-08T16:15:26.000Z</time>
      </trkpt>
      <trkpt lat="45.13089" lon="5.82996">
        <ele>478.21</ele>
        <time>2020-02-08T16:15:31.000Z</time>
      </trkpt>
      <trkpt lat="45.13092" lon="5.8302">
        <ele>484.34</ele>
        <time>2020-02-08T16:15:36.000Z</time>
      </trkpt>
      <trkpt lat="45.13095" lon="5.83045">
        <ele>486.34</ele>
        <time>2020-02-08T16:15:41.000Z</time>
      </trkpt>
      <trkpt lat="45.13096" lon="5.8307">
        <ele>489.3</ele>
        <time>2020-02-08T16:15:46.000Z</time>
      </trkpt>
      <trkpt lat="45.13099" lon="5.83095">
        <ele>492.82</ele>
        <time>2020-02-08T16:15:51.000Z</time>
      </trkpt>
      <trkpt lat="45.13101" lon="5.8312">
        <ele>493.48</ele>
        <time>2020-02-08T16:15:56.000Z</time>
      </trkpt>
      <trkpt lat="45.13103" lon="5.83145">
        <ele>496.13</ele>
        <time>2020-02-08T16:16:01.000Z</time>
      </trkpt>
      <trkpt lat="45.13107" lon="5.83167">
        <ele>497.54</ele>
        <time>2020-02-08T16:16:06.000Z</time>
      </trkpt>
      <trkpt lat="45.13111" lon="5.83189">
        <ele>496.99</ele>
        <time>2020-02-08T16:16:11.000Z</time>
      </trkpt>
      <trkpt lat="45.13119" lon="5.83208">
        <ele>497.6</ele>
        <time>2020-02-08T16:16:16.000Z</time>
      </trkpt>
      <trkpt lat="45.13135" lon="5.83216">
        <ele>496.02</ele>
        <time>2020-02-08T16:16:21.000Z</time>
      </trkpt>
      <trkpt lat="45.13153" lon="5.83224">
        <ele>499.12</ele>
        <time>2020-02-08T16:16:26.000Z</time>
      </trkpt>
      <trkpt lat="45.13169" lon="5.83241">
        <ele>502.28</ele>
        <time>2020-02-08T16:16:31.000Z</time>
      </trkpt>
      <trkpt lat="45.13175" lon="5.83266">
        <ele>504.62</ele>
        <time>2020-02-08T16:16:36.000Z</time>
      </trkpt>
      <trkpt lat="45.13162" lon="5.83279">
        <ele>503.43</ele>
        <time>2020-02-08T16:16:41.000Z</time>
      </trkpt>
      <trkpt lat="45.13144" lon="5.83281">
        <ele>501.19</ele>
        <time>2020-02-08T16:16:46.000Z</time>
      </trkpt>
      <trkpt lat="45.13129" lon="5.8329">
        <ele>503.56</ele>
        <time>2020-02-08T16:16:51.000Z</time>
      </trkpt>
      <trkpt lat="45.13118" lon="5.83308">
        <ele>503.63</ele>
        <time>2020-02-08T16:16:56.000Z</time>
      </trkpt>
      <trkpt lat="45.13106" lon="5.83324">
        <ele>504.2</ele>
        <time>2020-02-08T16:17:01.000Z</time>
      </trkpt>
      <trkpt lat="45.1309" lon="5.83338">
        <ele>508.71</ele>
        <time>2020-02-08T16:17:06.000Z</time>
      </trkpt>
      <trkpt lat="45.13075" lon="5.8335">
        <ele>514.09</ele>
        <time>2020-02-08T16:17:11.000Z</time>
      </trkpt>
      <trkpt lat="45.13059" lon="5.83363">
        <ele>516.58</ele>
        <time>2020-02-08T16:17:16.000Z</time>
      </trkpt>
      <trkpt lat="45.13046" lon="5.83376">
        <ele>522.55</ele>
        <time>2020-02-08T16:17:21.000Z</time>
      </trkpt>
      <trkpt lat="45.1303" lon="5.83391">
        <ele>523.08</ele>
        <time>2020-02-08T16:17:26.000Z</time>
      </trkpt>
      <trkpt lat="45.13015" lon="5.83404">
        <ele>525.14</ele>
        <time>2020-02-08T16:17:31.000Z</time>
      </trkpt>
      <trkpt lat="45.13001" lon="5.83418">
        <ele>526.37</ele>
        <time>2020-02-08T16:17:36.000Z</time>
      </trkpt>
      <trkpt lat="45.12986" lon="5.83432">
        <ele>526.83</ele>
        <time>2020-02-08T16:17:41.000Z</time>
      </trkpt>
      <trkpt lat="45.12971" lon="5.83449">
        <ele>528.05</ele>
        <time>2020-02-08T16:17:46.000Z</time>
      </trkpt>
      <trkpt lat="45.12954" lon="5.83458">
        <ele>529.04</ele>
        <time>2020-02-08T16:17:51.000Z</time>
      </trkpt>
      <trkpt lat="45.12937" lon="5.83462">
        <ele>531.31</ele>
        <time>2020-02-08T16:17:56.000Z</time>
      </trkpt>
      <trkpt lat="45.12918" lon="5.83462">
        <ele>532.92</ele>
        <time>2020-02-08T16:18:01.000Z</time>
      </trkpt>
      <trkpt lat="45.12898" lon="5.83465">
        <ele>534.18</ele>
        <time>2020-02-08T16:18:06.000Z</time>
      </trkpt>
      <trkpt lat="45.1288" lon="5.83469">
        <ele>537.23</ele>
        <time>2020-02-08T16:18:11.000Z</time>
      </trkpt>
      <trkpt lat="45.12864" lon="5.83473">
        <ele>538.72</ele>
        <time>2020-02-08T16:18:16.000Z</time>
      </trkpt>
      <trkpt lat="45.12848" lon="5.83477">
        <ele>540.87</ele>
        <time>2020-02-08T16:18:21.000Z</time>
      </trkpt>
      <trkpt lat="45.12832" lon="5.83481">
        <ele>542.37</ele>
        <time>2020-02-08T16:18:26.000Z</time>
      </trkpt>
      <trkpt lat="45.12815" lon="5.83489">
        <ele>546.67</ele>
        <time>2020-02-08T16:18:31.000Z</time>
      </trkpt>
      <trkpt lat="45.12808" lon="5.83513">
        <ele>546.77</ele>
        <time>2020-02-08T16:18:36.000Z</time>
      </trkpt>
      <trkpt lat="45.12823" lon="5.83524">
        <ele>543.53</ele>
        <time>2020-02-08T16:18:41.000Z</time>
      </trkpt>
      <trkpt lat="45.12848" lon="5.83523">
        <ele>543.49</ele>
        <time>2020-02-08T16:18:46.000Z</time>
      </trkpt>
      <trkpt lat="45.12872" lon="5.83534">
        <ele>546.44</ele>
        <time>2020-02-08T16:18:51.000Z</time>
      </trkpt>
      <trkpt lat="45.12896" lon="5.83547">
        <ele>547.85</ele>
        <time>2020-02-08T16:18:56.000Z</time>
      </trkpt>
      <trkpt lat="45.12915" lon="5.83565">
        <ele>546</ele>
        <time>2020-02-08T16:19:01.000Z</time>
      </trkpt>
      <trkpt lat="45.12928" lon="5.83585">
        <ele>551.35</ele>
        <time>2020-02-08T16:19:06.000Z</time>
      </trkpt>
      <trkpt lat="45.12944" lon="5.83602">
        <ele>551.32</ele>
        <time>2020-02-08T16:19:11.000Z</time>
      </trkpt>
      <trkpt lat="45.12967" lon="5.83603">
        <ele>554.02</ele>
        <time>2020-02-08T16:19:16.000Z</time>
      </trkpt>
      <trkpt lat="45.12988" lon="5.83602">
        <ele>555.78</ele>
        <time>2020-02-08T16:19:21.000Z</time>
      </trkpt>
      <trkpt lat="45.13006" lon="5.83614">
        <ele>554.22</ele>
        <time>2020-02-08T16:19:26.000Z</time>
      </trkpt>
      <trkpt lat="45.13022" lon="5.83639">
        <ele>556.66</ele>
        <time>2020-02-08T16:19:31.000Z</time>
      </trkpt>
      <trkpt lat="45.13032" lon="5.83661">
        <ele>560.56</ele>
        <time>2020-02-08T16:19:36.000Z</time>
      </trkpt>
      <trkpt lat="45.13041" lon="5.83687">
        <ele>561.96</ele>
        <time>2020-02-08T16:19:41.000Z</time>
      </trkpt>
      <trkpt lat="45.13052" lon="5.83711">
        <ele>561.36</ele>
        <time>2020-02-08T16:19:46.000Z</time>
      </trkpt>
      <trkpt lat="45.13061" lon="5.8374">
        <ele>563.42</ele>
        <time>2020-02-08T16:19:51.000Z</time>
      </trkpt>
      <trkpt lat="45.13079" lon="5.83754">
        <ele>566.29</ele>
        <time>2020-02-08T16:19:56.000Z</time>
      </trkpt>
      <trkpt lat="45.13091" lon="5.83777">
        <ele>565.71</ele>
        <time>2020-02-08T16:20:01.000Z</time>
      </trkpt>
      <trkpt lat="45.1311" lon="5.83787">
        <ele>565.18</ele>
        <time>2020-02-08T16:20:06.000Z</time>
      </trkpt>
      <trkpt lat="45.13139" lon="5.83781">
        <ele>566.46</ele>
        <time>2020-02-08T16:20:11.000Z</time>
      </trkpt>
      <trkpt lat="45.13166" lon="5.83765">
        <ele>565.09</ele>
        <time>2020-02-08T16:20:16.000Z</time>
      </trkpt>
      <trkpt lat="45.13189" lon="5.83751">
        <ele>565.81</ele>
        <time>2020-02-08T16:20:21.000Z</time>
      </trkpt>
      <trkpt lat="45.13212" lon="5.83745">
        <ele>567.45</ele>
        <time>2020-02-08T16:20:26.000Z</time>
      </trkpt>
      <trkpt lat="45.13243" lon="5.83751">
        <ele>569.04</ele>
        <time>2020-02-08T16:20:31.000Z</time>
      </trkpt>
      <trkpt lat="45.13267" lon="5.83756">
        <ele>571.26</ele>
        <time>2020-02-08T16:20:36.000Z</time>
      </trkpt>
      <trkpt lat="45.1329" lon="5.83765">
        <ele>569.59</ele>
        <time>2020-02-08T16:20:41.000Z</time>
      </trkpt>
      <trkpt lat="45.13317" lon="5.83778">
        <ele>568.41</ele>
        <time>2020-02-08T16:20:46.000Z</time>
      </trkpt>
      <trkpt lat="45.13341" lon="5.8379">
        <ele>567.75</ele>
        <time>2020-02-08T16:20:51.000Z</time>
      </trkpt>
      <trkpt lat="45.13362" lon="5.83798">
        <ele>570.82</ele>
        <time>2020-02-08T16:20:56.000Z</time>
      </trkpt>
      <trkpt lat="45.13389" lon="5.83809">
        <ele>572.39</ele>
        <time>2020-02-08T16:21:01.000Z</time>
      </trkpt>
      <trkpt lat="45.13422" lon="5.8382">
        <ele>569.3</ele>
        <time>2020-02-08T16:21:06.000Z</time>
      </trkpt>
      <trkpt lat="45.13454" lon="5.83832">
        <ele>567.21</ele>
        <time>2020-02-08T16:21:11.000Z</time>
      </trkpt>
      <trkpt lat="45.13486" lon="5.83845">
        <ele>565.86</ele>
        <time>2020-02-08T16:21:16.000Z</time>
      </trkpt>
      <trkpt lat="45.13514" lon="5.83863">
        <ele>565.11</ele>
        <time>2020-02-08T16:21:21.000Z</time>
      </trkpt>
      <trkpt lat="45.13538" lon="5.83869">
        <ele>565.66</ele>
        <time>2020-02-08T16:21:26.000Z</time>
      </trkpt>
      <trkpt lat="45.13575" lon="5.8388">
        <ele>564.92</ele>
        <time>2020-02-08T16:21:31.000Z</time>
      </trkpt>
      <trkpt lat="45.13606" lon="5.83888">
        <ele>567.72</ele>
        <time>2020-02-08T16:21:36.000Z</time>
      </trkpt>
      <trkpt lat="45.13637" lon="5.83907">
        <ele>565.96</ele>
        <time>2020-02-08T16:21:41.000Z</time>
      </trkpt>
      <trkpt lat="45.13658" lon="5.8392">
        <ele>562.14</ele>
        <time>2020-02-08T16:21:46.000Z</time>
      </trkpt>
      <trkpt lat="45.13683" lon="5.83932">
        <ele>562.99</ele>
        <time>2020-02-08T16:21:51.000Z</time>
      </trkpt>
      <trkpt lat="45.13708" lon="5.83939">
        <ele>564.3</ele>
        <time>2020-02-08T16:21:56.000Z</time>
      </trkpt>
      <trkpt lat="45.13735" lon="5.83955">
        <ele>565.97</ele>
        <time>2020-02-08T16:22:01.000Z</time>
      </trkpt>
      <trkpt lat="45.13756" lon="5.83941">
        <ele>565.62</ele>
        <time>2020-02-08T16:22:06.000Z</time>
      </trkpt>
      <trkpt lat="45.13773" lon="5.83951">
        <ele>565.01</ele>
        <time>2020-02-08T16:22:11.000Z</time>
      </trkpt>
      <trkpt lat="45.13791" lon="5.8397">
        <ele>564.71</ele>
        <time>2020-02-08T16:22:16.000Z</time>
      </trkpt>
      <trkpt lat="45.13815" lon="5.83989">
        <ele>562.95</ele>
        <time>2020-02-08T16:22:21.000Z</time>
      </trkpt>
      <trkpt lat="45.13836" lon="5.83997">
        <ele>567.24</ele>
        <time>2020-02-08T16:22:26.000Z</time>
      </trkpt>
      <trkpt lat="45.13866" lon="5.84001">
        <ele>572.03</ele>
        <time>2020-02-08T16:22:31.000Z</time>
      </trkpt>
      <trkpt lat="45.13885" lon="5.8401">
        <ele>571.11</ele>
        <time>2020-02-08T16:22:36.000Z</time>
      </trkpt>
      <trkpt lat="45.1391" lon="5.84027">
        <ele>569.76</ele>
        <time>2020-02-08T16:22:41.000Z</time>
      </trkpt>
      <trkpt lat="45.13932" lon="5.84043">
        <ele>572.33</ele>
        <time>2020-02-08T16:22:46.000Z</time>
      </trkpt>
      <trkpt lat="45.13955" lon="5.84063">
        <ele>572.89</ele>
        <time>2020-02-08T16:22:51.000Z</time>
      </trkpt>
      <trkpt lat="45.1398" lon="5.84067">
        <ele>571.37</ele>
        <time>2020-02-08T16:22:56.000Z</time>
      </trkpt>
      <trkpt lat="45.14003" lon="5.84075">
        <ele>575.06</ele>
        <time>2020-02-08T16:23:01.000Z</time>
      </trkpt>
      <trkpt lat="45.14028" lon="5.84077">
        <ele>575.2</ele>
        <time>2020-02-08T16:23:06.000Z</time>
      </trkpt>
      <trkpt lat="45.14049" lon="5.84081">
        <ele>577.77</ele>
        <time>2020-02-08T16:23:11.000Z</time>
      </trkpt>
      <trkpt lat="45.14078" lon="5.8408">
        <ele>578.54</ele>
        <time>2020-02-08T16:23:16.000Z</time>
      </trkpt>
      <trkpt lat="45.14102" lon="5.84063">
        <ele>578.67</ele>
        <time>2020-02-08T16:23:21.000Z</time>
      </trkpt>
      <trkpt lat="45.1413" lon="5.84049">
        <ele>576.73</ele>
        <time>2020-02-08T16:23:26.000Z</time>
      </trkpt>
      <trkpt lat="45.14158" lon="5.84034">
        <ele>574.65</ele>
        <time>2020-02-08T16:23:31.000Z</time>
      </trkpt>
      <trkpt lat="45.14188" lon="5.84039">
        <ele>574.35</ele>
        <time>2020-02-08T16:23:36.000Z</time>
      </trkpt>
      <trkpt lat="45.14219" lon="5.84056">
        <ele>572.63</ele>
        <time>2020-02-08T16:23:41.000Z</time>
      </trkpt>
      <trkpt lat="45.14233" lon="5.84088">
        <ele>571.63</ele>
        <time>2020-02-08T16:23:46.000Z</time>
      </trkpt>
      <trkpt lat="45.14245" lon="5.84124">
        <ele>571.19</ele>
        <time>2020-02-08T16:23:51.000Z</time>
      </trkpt>
      <trkpt lat="45.14267" lon="5.84147">
        <ele>573.48</ele>
        <time>2020-02-08T16:23:56.000Z</time>
      </trkpt>
      <trkpt lat="45.14294" lon="5.84135">
        <ele>574.25</ele>
        <time>2020-02-08T16:24:01.000Z</time>
      </trkpt>
      <trkpt lat="45.14318" lon="5.84112">
        <ele>576.42</ele>
        <time>2020-02-08T16:24:06.000Z</time>
      </trkpt>
      <trkpt lat="45.14338" lon="5.84088">
        <ele>576.5</ele>
        <time>2020-02-08T16:24:11.000Z</time>
      </trkpt>
      <trkpt lat="45.1436" lon="5.84062">
        <ele>575.73</ele>
        <time>2020-02-08T16:24:16.000Z</time>
      </trkpt>
      <trkpt lat="45.14376" lon="5.84029">
        <ele>576.83</ele>
        <time>2020-02-08T16:24:21.000Z</time>
      </trkpt>
      <trkpt lat="45.14395" lon="5.83997">
        <ele>578.12</ele>
        <time>2020-02-08T16:24:26.000Z</time>
      </trkpt>
      <trkpt lat="45.14413" lon="5.83968">
        <ele>577.82</ele>
        <time>2020-02-08T16:24:31.000Z</time>
      </trkpt>
      <trkpt lat="45.14443" lon="5.83964">
        <ele>577.57</ele>
        <time>2020-02-08T16:24:36.000Z</time>
      </trkpt>
      <trkpt lat="45.1447" lon="5.83953">
        <ele>579.96</ele>
        <time>2020-02-08T16:24:41.000Z</time>
      </trkpt>
      <trkpt lat="45.14496" lon="5.83947">
        <ele>576.87</ele>
        <time>2020-02-08T16:24:46.000Z</time>
      </trkpt>
      <trkpt lat="45.14523" lon="5.83932">
        <ele>576.92</ele>
        <time>2020-02-08T16:24:51.000Z</time>
      </trkpt>
      <trkpt lat="45.14552" lon="5.83917">
        <ele>576.67</ele>
        <time>2020-02-08T16:24:56.000Z</time>
      </trkpt>
      <trkpt lat="45.14583" lon="5.83903">
        <ele>577.13</ele>
        <time>2020-02-08T16:25:01.000Z</time>
      </trkpt>
      <trkpt lat="45.14617" lon="5.83901">
        <ele>581.13</ele>
        <time>2020-02-08T16:25:06.000Z</time>
      </trkpt>
      <trkpt lat="45.14652" lon="5.83905">
        <ele>582.63</ele>
        <time>2020-02-08T16:25:11.000Z</time>
      </trkpt>
      <trkpt lat="45.14681" lon="5.83911">
        <ele>581.07</ele>
        <time>2020-02-08T16:25:16.000Z</time>
      </trkpt>
      <trkpt lat="45.14708" lon="5.83908">
        <ele>579.31</ele>
        <time>2020-02-08T16:25:21.000Z</time>
      </trkpt>
      <trkpt lat="45.14739" lon="5.839">
        <ele>581.11</ele>
        <time>2020-02-08T16:25:26.000Z</time>
      </trkpt>
      <trkpt lat="45.14768" lon="5.83896">
        <ele>580.62</ele>
        <time>2020-02-08T16:25:31.000Z</time>
      </trkpt>
      <trkpt lat="45.148" lon="5.83886">
        <ele>584.45</ele>
        <time>2020-02-08T16:25:36.000Z</time>
      </trkpt>
      <trkpt lat="45.14831" lon="5.83876">
        <ele>584.82</ele>
        <time>2020-02-08T16:25:41.000Z</time>
      </trkpt>
      <trkpt lat="45.14862" lon="5.83867">
        <ele>581.42</ele>
        <time>2020-02-08T16:25:46.000Z</time>
      </trkpt>
      <trkpt lat="45.14894" lon="5.83858">
        <ele>581.7</ele>
        <time>2020-02-08T16:25:51.000Z</time>
      </trkpt>
      <trkpt lat="45.14925" lon="5.83849">
        <ele>578.85</ele>
        <time>2020-02-08T16:25:56.000Z</time>
      </trkpt>
      <trkpt lat="45.14957" lon="5.83834">
        <ele>580.79</ele>
        <time>2020-02-08T16:26:01.000Z</time>
      </trkpt>
      <trkpt lat="45.1499" lon="5.83822">
        <ele>580.72</ele>
        <time>2020-02-08T16:26:06.000Z</time>
      </trkpt>
      <trkpt lat="45.15022" lon="5.838">
        <ele>583.18</ele>
        <time>2020-02-08T16:26:11.000Z</time>
      </trkpt>
      <trkpt lat="45.15052" lon="5.83772">
        <ele>583.16</ele>
        <time>2020-02-08T16:26:16.000Z</time>
      </trkpt>
      <trkpt lat="45.15077" lon="5.8374">
        <ele>579.04</ele>
        <time>2020-02-08T16:26:21.000Z</time>
      </trkpt>
      <trkpt lat="45.15082" lon="5.83716">
        <ele>578.19</ele>
        <time>2020-02-08T16:26:26.000Z</time>
      </trkpt>
      <trkpt lat="45.15101" lon="5.83718">
        <ele>579.9</ele>
        <time>2020-02-08T16:26:31.000Z</time>
      </trkpt>
      <trkpt lat="45.15117" lon="5.83733">
        <ele>579.77</ele>
        <time>2020-02-08T16:26:36.000Z</time>
      </trkpt>
      <trkpt lat="45.15135" lon="5.83747">
        <ele>578.26</ele>
        <time>2020-02-08T16:26:41.000Z</time>
      </trkpt>
      <trkpt lat="45.15154" lon="5.8376">
        <ele>579.49</ele>
        <time>2020-02-08T16:26:46.000Z</time>
      </trkpt>
      <trkpt lat="45.15169" lon="5.83781">
        <ele>580</ele>
        <time>2020-02-08T16:26:51.000Z</time>
      </trkpt>
      <trkpt lat="45.15191" lon="5.83794">
        <ele>581.54</ele>
        <time>2020-02-08T16:26:56.000Z</time>
      </trkpt>
      <trkpt lat="45.15208" lon="5.8381">
        <ele>581.69</ele>
        <time>2020-02-08T16:27:01.000Z</time>
      </trkpt>
      <trkpt lat="45.15226" lon="5.83826">
        <ele>583.96</ele>
        <time>2020-02-08T16:27:06.000Z</time>
      </trkpt>
      <trkpt lat="45.15243" lon="5.83838">
        <ele>588.69</ele>
        <time>2020-02-08T16:27:11.000Z</time>
      </trkpt>
      <trkpt lat="45.15259" lon="5.83848">
        <ele>590.35</ele>
        <time>2020-02-08T16:27:16.000Z</time>
      </trkpt>
      <trkpt lat="45.15279" lon="5.83852">
        <ele>590.16</ele>
        <time>2020-02-08T16:27:21.000Z</time>
      </trkpt>
      <trkpt lat="45.15298" lon="5.83852">
        <ele>589.53</ele>
        <time>2020-02-08T16:27:26.000Z</time>
      </trkpt>
      <trkpt lat="45.15315" lon="5.83858">
        <ele>589.01</ele>
        <time>2020-02-08T16:27:31.000Z</time>
      </trkpt>
      <trkpt lat="45.15331" lon="5.83874">
        <ele>591.22</ele>
        <time>2020-02-08T16:27:36.000Z</time>
      </trkpt>
      <trkpt lat="45.1534" lon="5.83898">
        <ele>587.91</ele>
        <time>2020-02-08T16:27:41.000Z</time>
      </trkpt>
      <trkpt lat="45.15352" lon="5.83922">
        <ele>593.08</ele>
        <time>2020-02-08T16:27:46.000Z</time>
      </trkpt>
      <trkpt lat="45.15357" lon="5.83948">
        <ele>594.89</ele>
        <time>2020-02-08T16:27:51.000Z</time>
      </trkpt>
      <trkpt lat="45.15354" lon="5.83972">
        <ele>594.71</ele>
        <time>2020-02-08T16:27:56.000Z</time>
      </trkpt>
      <trkpt lat="45.15349" lon="5.83996">
        <ele>595.54</ele>
        <time>2020-02-08T16:28:01.000Z</time>
      </trkpt>
      <trkpt lat="45.15346" lon="5.84016">
        <ele>596.52</ele>
        <time>2020-02-08T16:28:06.000Z</time>
      </trkpt>
      <trkpt lat="45.15349" lon="5.84036">
        <ele>596.61</ele>
        <time>2020-02-08T16:28:11.000Z</time>
      </trkpt>
      <trkpt lat="45.15352" lon="5.84057">
        <ele>601.57</ele>
        <time>2020-02-08T16:28:16.000Z</time>
      </trkpt>
      <trkpt lat="45.15353" lon="5.84076">
        <ele>607.82</ele>
        <time>2020-02-08T16:28:21.000Z</time>
      </trkpt>
      <trkpt lat="45.15354" lon="5.84088">
        <ele>613.88</ele>
        <time>2020-02-08T16:28:30.000Z</time>
      </trkpt>
      <trkpt lat="45.15349" lon="5.84102">
        <ele>615.12</ele>
        <time>2020-02-08T16:28:42.000Z</time>
      </trkpt>
      <trkpt lat="45.15338" lon="5.84115">
        <ele>613.86</ele>
        <time>2020-02-08T16:28:47.000Z</time>
      </trkpt>
      <trkpt lat="45.15329" lon="5.84123">
        <ele>614.85</ele>
        <time>2020-02-08T16:28:52.000Z</time>
      </trkpt>
      <trkpt lat="45.15315" lon="5.84129">
        <ele>615.78</ele>
        <time>2020-02-08T16:28:57.000Z</time>
      </trkpt>
      <trkpt lat="45.15297" lon="5.8414">
        <ele>622.71</ele>
        <time>2020-02-08T16:29:02.000Z</time>
      </trkpt>
      <trkpt lat="45.15279" lon="5.8415">
        <ele>622.42</ele>
        <time>2020-02-08T16:29:07.000Z</time>
      </trkpt>
      <trkpt lat="45.15261" lon="5.84162">
        <ele>622.28</ele>
        <time>2020-02-08T16:29:12.000Z</time>
      </trkpt>
      <trkpt lat="45.15242" lon="5.84173">
        <ele>622.39</ele>
        <time>2020-02-08T16:29:17.000Z</time>
      </trkpt>
      <trkpt lat="45.15227" lon="5.84187">
        <ele>626.14</ele>
        <time>2020-02-08T16:29:22.000Z</time>
      </trkpt>
      <trkpt lat="45.15212" lon="5.842">
        <ele>628.09</ele>
        <time>2020-02-08T16:29:27.000Z</time>
      </trkpt>
      <trkpt lat="45.15195" lon="5.84216">
        <ele>630.45</ele>
        <time>2020-02-08T16:29:32.000Z</time>
      </trkpt>
      <trkpt lat="45.15178" lon="5.84229">
        <ele>628.08</ele>
        <time>2020-02-08T16:29:37.000Z</time>
      </trkpt>
      <trkpt lat="45.15163" lon="5.84245">
        <ele>627.06</ele>
        <time>2020-02-08T16:29:42.000Z</time>
      </trkpt>
      <trkpt lat="45.15148" lon="5.84265">
        <ele>630.55</ele>
        <time>2020-02-08T16:29:47.000Z</time>
      </trkpt>
      <trkpt lat="45.1514" lon="5.84292">
        <ele>634.92</ele>
        <time>2020-02-08T16:29:52.000Z</time>
      </trkpt>
      <trkpt lat="45.15127" lon="5.84315">
        <ele>633.14</ele>
        <time>2020-02-08T16:29:57.000Z</time>
      </trkpt>
      <trkpt lat="45.15112" lon="5.84332">
        <ele>636.11</ele>
        <time>2020-02-08T16:30:02.000Z</time>
      </trkpt>
      <trkpt lat="45.15094" lon="5.84336">
        <ele>638.25</ele>
        <time>2020-02-08T16:30:07.000Z</time>
      </trkpt>
      <trkpt lat="45.15076" lon="5.84337">
        <ele>638.63</ele>
        <time>2020-02-08T16:30:12.000Z</time>
      </trkpt>
      <trkpt lat="45.15059" lon="5.8434">
        <ele>638.3</ele>
        <time>2020-02-08T16:30:17.000Z</time>
      </trkpt>
      <trkpt lat="45.15041" lon="5.84349">
        <ele>642.51</ele>
        <time>2020-02-08T16:30:22.000Z</time>
      </trkpt>
      <trkpt lat="45.15027" lon="5.84366">
        <ele>646.48</ele>
        <time>2020-02-08T16:30:27.000Z</time>
      </trkpt>
      <trkpt lat="45.15021" lon="5.84393">
        <ele>648.77</ele>
        <time>2020-02-08T16:30:32.000Z</time>
      </trkpt>
      <trkpt lat="45.15021" lon="5.84421">
        <ele>649.94</ele>
        <time>2020-02-08T16:30:37.000Z</time>
      </trkpt>
      <trkpt lat="45.15026" lon="5.84447">
        <ele>650.77</ele>
        <time>2020-02-08T16:30:42.000Z</time>
      </trkpt>
      <trkpt lat="45.15042" lon="5.84467">
        <ele>654.57</ele>
        <time>2020-02-08T16:30:47.000Z</time>
      </trkpt>
      <trkpt lat="45.15062" lon="5.84478">
        <ele>657.88</ele>
        <time>2020-02-08T16:30:52.000Z</time>
      </trkpt>
      <trkpt lat="45.15082" lon="5.84485">
        <ele>659.8</ele>
        <time>2020-02-08T16:30:57.000Z</time>
      </trkpt>
      <trkpt lat="45.15101" lon="5.84493">
        <ele>663.18</ele>
        <time>2020-02-08T16:31:02.000Z</time>
      </trkpt>
      <trkpt lat="45.1512" lon="5.84504">
        <ele>659.73</ele>
        <time>2020-02-08T16:31:07.000Z</time>
      </trkpt>
      <trkpt lat="45.1514" lon="5.84517">
        <ele>664.78</ele>
        <time>2020-02-08T16:31:12.000Z</time>
      </trkpt>
      <trkpt lat="45.15158" lon="5.84531">
        <ele>667.1</ele>
        <time>2020-02-08T16:31:17.000Z</time>
      </trkpt>
      <trkpt lat="45.15173" lon="5.84544">
        <ele>662.75</ele>
        <time>2020-02-08T16:31:22.000Z</time>
      </trkpt>
      <trkpt lat="45.15188" lon="5.84558">
        <ele>665.51</ele>
        <time>2020-02-08T16:31:27.000Z</time>
      </trkpt>
      <trkpt lat="45.15203" lon="5.84573">
        <ele>671.04</ele>
        <time>2020-02-08T16:31:32.000Z</time>
      </trkpt>
      <trkpt lat="45.15218" lon="5.84591">
        <ele>673.27</ele>
        <time>2020-02-08T16:31:37.000Z</time>
      </trkpt>
      <trkpt lat="45.15232" lon="5.84611">
        <ele>674.85</ele>
        <time>2020-02-08T16:31:42.000Z</time>
      </trkpt>
      <trkpt lat="45.15243" lon="5.84633">
        <ele>677.16</ele>
        <time>2020-02-08T16:31:47.000Z</time>
      </trkpt>
      <trkpt lat="45.1525" lon="5.84658">
        <ele>682.86</ele>
        <time>2020-02-08T16:31:52.000Z</time>
      </trkpt>
      <trkpt lat="45.15254" lon="5.84682">
        <ele>683.7</ele>
        <time>2020-02-08T16:31:57.000Z</time>
      </trkpt>
      <trkpt lat="45.15255" lon="5.84707">
        <ele>684.49</ele>
        <time>2020-02-08T16:32:02.000Z</time>
      </trkpt>
      <trkpt lat="45.15276" lon="5.84732">
        <ele>683.89</ele>
        <time>2020-02-08T16:32:07.000Z</time>
      </trkpt>
      <trkpt lat="45.15296" lon="5.84756">
        <ele>683.57</ele>
        <time>2020-02-08T16:32:12.000Z</time>
      </trkpt>
      <trkpt lat="45.15309" lon="5.84779">
        <ele>681.66</ele>
        <time>2020-02-08T16:32:17.000Z</time>
      </trkpt>
      <trkpt lat="45.15328" lon="5.84806">
        <ele>683.79</ele>
        <time>2020-02-08T16:32:22.000Z</time>
      </trkpt>
      <trkpt lat="45.15348" lon="5.84833">
        <ele>685.07</ele>
        <time>2020-02-08T16:32:27.000Z</time>
      </trkpt>
      <trkpt lat="45.15359" lon="5.84868">
        <ele>683.16</ele>
        <time>2020-02-08T16:32:32.000Z</time>
      </trkpt>
      <trkpt lat="45.15354" lon="5.84902">
        <ele>679.58</ele>
        <time>2020-02-08T16:32:37.000Z</time>
      </trkpt>
      <trkpt lat="45.1535" lon="5.84931">
        <ele>680.04</ele>
        <time>2020-02-08T16:32:42.000Z</time>
      </trkpt>
      <trkpt lat="45.15347" lon="5.84961">
        <ele>677.53</ele>
        <time>2020-02-08T16:32:47.000Z</time>
      </trkpt>
      <trkpt lat="45.15355" lon="5.84996">
        <ele>675.56</ele>
        <time>2020-02-08T16:32:52.000Z</time>
      </trkpt>
      <trkpt lat="45.15368" lon="5.85041">
        <ele>675.36</ele>
        <time>2020-02-08T16:32:57.000Z</time>
      </trkpt>
      <trkpt lat="45.15384" lon="5.85068">
        <ele>676.08</ele>
        <time>2020-02-08T16:33:02.000Z</time>
      </trkpt>
      <trkpt lat="45.15398" lon="5.85046">
        <ele>675.68</ele>
        <time>2020-02-08T16:33:07.000Z</time>
      </trkpt>
      <trkpt lat="45.15406" lon="5.85012">
        <ele>676.49</ele>
        <time>2020-02-08T16:33:12.000Z</time>
      </trkpt>
      <trkpt lat="45.15416" lon="5.84989">
        <ele>679.39</ele>
        <time>2020-02-08T16:33:17.000Z</time>
      </trkpt>
      <trkpt lat="45.15435" lon="5.84977">
        <ele>679.13</ele>
        <time>2020-02-08T16:33:22.000Z</time>
      </trkpt>
      <trkpt lat="45.15449" lon="5.84956">
        <ele>679.99</ele>
        <time>2020-02-08T16:33:27.000Z</time>
      </trkpt>
      <trkpt lat="45.15466" lon="5.84947">
        <ele>683.35</ele>
        <time>2020-02-08T16:33:32.000Z</time>
      </trkpt>
      <trkpt lat="45.15479" lon="5.84946">
        <ele>683.38</ele>
        <time>2020-02-08T16:33:37.000Z</time>
      </trkpt>
      <trkpt lat="45.15492" lon="5.84947">
        <ele>682.31</ele>
        <time>2020-02-08T16:33:42.000Z</time>
      </trkpt>
      <trkpt lat="45.15506" lon="5.84948">
        <ele>684.12</ele>
        <time>2020-02-08T16:33:47.000Z</time>
      </trkpt>
      <trkpt lat="45.1552" lon="5.84941">
        <ele>685.42</ele>
        <time>2020-02-08T16:33:52.000Z</time>
      </trkpt>
      <trkpt lat="45.15532" lon="5.84937">
        <ele>687.1</ele>
        <time>2020-02-08T16:33:57.000Z</time>
      </trkpt>
      <trkpt lat="45.15546" lon="5.84929">
        <ele>689.75</ele>
        <time>2020-02-08T16:34:02.000Z</time>
      </trkpt>
      <trkpt lat="45.15558" lon="5.8492">
        <ele>688.77</ele>
        <time>2020-02-08T16:34:07.000Z</time>
      </trkpt>
      <trkpt lat="45.15573" lon="5.84917">
        <ele>688.07</ele>
        <time>2020-02-08T16:34:12.000Z</time>
      </trkpt>
      <trkpt lat="45.15588" lon="5.8491">
        <ele>689.97</ele>
        <time>2020-02-08T16:34:17.000Z</time>
      </trkpt>
      <trkpt lat="45.15604" lon="5.84904">
        <ele>693.5</ele>
        <time>2020-02-08T16:34:22.000Z</time>
      </trkpt>
      <trkpt lat="45.15618" lon="5.84902">
        <ele>703.3</ele>
        <time>2020-02-08T16:34:27.000Z</time>
      </trkpt>
      <trkpt lat="45.15635" lon="5.84904">
        <ele>703.82</ele>
        <time>2020-02-08T16:34:32.000Z</time>
      </trkpt>
      <trkpt lat="45.15653" lon="5.84903">
        <ele>705.78</ele>
        <time>2020-02-08T16:34:37.000Z</time>
      </trkpt>
      <trkpt lat="45.15672" lon="5.84902">
        <ele>707.9</ele>
        <time>2020-02-08T16:34:42.000Z</time>
      </trkpt>
      <trkpt lat="45.15689" lon="5.84897">
        <ele>709.82</ele>
        <time>2020-02-08T16:34:47.000Z</time>
      </trkpt>
      <trkpt lat="45.15706" lon="5.84893">
        <ele>711.9</ele>
        <time>2020-02-08T16:34:52.000Z</time>
      </trkpt>
      <trkpt lat="45.15723" lon="5.84891">
        <ele>714.87</ele>
        <time>2020-02-08T16:34:57.000Z</time>
      </trkpt>
      <trkpt lat="45.15739" lon="5.84889">
        <ele>716.43</ele>
        <time>2020-02-08T16:35:02.000Z</time>
      </trkpt>
      <trkpt lat="45.15756" lon="5.84894">
        <ele>718.52</ele>
        <time>2020-02-08T16:35:07.000Z</time>
      </trkpt>
      <trkpt lat="45.15773" lon="5.84897">
        <ele>722.46</ele>
        <time>2020-02-08T16:35:12.000Z</time>
      </trkpt>
      <trkpt lat="45.15787" lon="5.8491">
        <ele>726.36</ele>
        <time>2020-02-08T16:35:17.000Z</time>
      </trkpt>
      <trkpt lat="45.15799" lon="5.84923">
        <ele>725.89</ele>
        <time>2020-02-08T16:35:22.000Z</time>
      </trkpt>
      <trkpt lat="45.15813" lon="5.84912">
        <ele>726.66</ele>
        <time>2020-02-08T16:35:27.000Z</time>
      </trkpt>
      <trkpt lat="45.15825" lon="5.84893">
        <ele>727.36</ele>
        <time>2020-02-08T16:35:32.000Z</time>
      </trkpt>
      <trkpt lat="45.15839" lon="5.84874">
        <ele>728.62</ele>
        <time>2020-02-08T16:35:37.000Z</time>
      </trkpt>
      <trkpt lat="45.15862" lon="5.84865">
        <ele>729.94</ele>
        <time>2020-02-08T16:35:42.000Z</time>
      </trkpt>
      <trkpt lat="45.15871" lon="5.84886">
        <ele>731.24</ele>
        <time>2020-02-08T16:35:47.000Z</time>
      </trkpt>
      <trkpt lat="45.1588" lon="5.84906">
        <ele>732.03</ele>
        <time>2020-02-08T16:35:52.000Z</time>
      </trkpt>
      <trkpt lat="45.15897" lon="5.84916">
        <ele>737.53</ele>
        <time>2020-02-08T16:35:57.000Z</time>
      </trkpt>
      <trkpt lat="45.15914" lon="5.8492">
        <ele>738.94</ele>
        <time>2020-02-08T16:36:02.000Z</time>
      </trkpt>
      <trkpt lat="45.15931" lon="5.8492">
        <ele>740.91</ele>
        <time>2020-02-08T16:36:07.000Z</time>
      </trkpt>
      <trkpt lat="45.15948" lon="5.84921">
        <ele>744.6</ele>
        <time>2020-02-08T16:36:12.000Z</time>
      </trkpt>
      <trkpt lat="45.15965" lon="5.84923">
        <ele>748.34</ele>
        <time>2020-02-08T16:36:17.000Z</time>
      </trkpt>
      <trkpt lat="45.15981" lon="5.84926">
        <ele>749.95</ele>
        <time>2020-02-08T16:36:22.000Z</time>
      </trkpt>
      <trkpt lat="45.15997" lon="5.84928">
        <ele>752.82</ele>
        <time>2020-02-08T16:36:27.000Z</time>
      </trkpt>
      <trkpt lat="45.16012" lon="5.84931">
        <ele>752.31</ele>
        <time>2020-02-08T16:36:32.000Z</time>
      </trkpt>
      <trkpt lat="45.16029" lon="5.84936">
        <ele>749.12</ele>
        <time>2020-02-08T16:36:37.000Z</time>
      </trkpt>
      <trkpt lat="45.16045" lon="5.84942">
        <ele>751.24</ele>
        <time>2020-02-08T16:36:42.000Z</time>
      </trkpt>
      <trkpt lat="45.16062" lon="5.84947">
        <ele>754.35</ele>
        <time>2020-02-08T16:36:47.000Z</time>
      </trkpt>
      <trkpt lat="45.16077" lon="5.84959">
        <ele>756.56</ele>
        <time>2020-02-08T16:36:52.000Z</time>
      </trkpt>
      <trkpt lat="45.16086" lon="5.84981">
        <ele>757.82</ele>
        <time>2020-02-08T16:36:57.000Z</time>
      </trkpt>
      <trkpt lat="45.16093" lon="5.85003">
        <ele>760.76</ele>
        <time>2020-02-08T16:37:02.000Z</time>
      </trkpt>
      <trkpt lat="45.16101" lon="5.85024">
        <ele>760.01</ele>
        <time>2020-02-08T16:37:07.000Z</time>
      </trkpt>
      <trkpt lat="45.16109" lon="5.85044">
        <ele>762.88</ele>
        <time>2020-02-08T16:37:12.000Z</time>
      </trkpt>
      <trkpt lat="45.1612" lon="5.85062">
        <ele>765.14</ele>
        <time>2020-02-08T16:37:17.000Z</time>
      </trkpt>
      <trkpt lat="45.16132" lon="5.85079">
        <ele>764.9</ele>
        <time>2020-02-08T16:37:22.000Z</time>
      </trkpt>
      <trkpt lat="45.16145" lon="5.85095">
        <ele>764.66</ele>
        <time>2020-02-08T16:37:27.000Z</time>
      </trkpt>
      <trkpt lat="45.16158" lon="5.85109">
        <ele>766.56</ele>
        <time>2020-02-08T16:37:32.000Z</time>
      </trkpt>
      <trkpt lat="45.16174" lon="5.85119">
        <ele>766.58</ele>
        <time>2020-02-08T16:37:37.000Z</time>
      </trkpt>
      <trkpt lat="45.16192" lon="5.85128">
        <ele>768.86</ele>
        <time>2020-02-08T16:37:42.000Z</time>
      </trkpt>
      <trkpt lat="45.1621" lon="5.85141">
        <ele>765.9</ele>
        <time>2020-02-08T16:37:47.000Z</time>
      </trkpt>
      <trkpt lat="45.16227" lon="5.85155">
        <ele>764.52</ele>
        <time>2020-02-08T16:37:52.000Z</time>
      </trkpt>
      <trkpt lat="45.16244" lon="5.8517">
        <ele>765.15</ele>
        <time>2020-02-08T16:37:57.000Z</time>
      </trkpt>
      <trkpt lat="45.16261" lon="5.85183">
        <ele>766.77</ele>
        <time>2020-02-08T16:38:02.000Z</time>
      </trkpt>
      <trkpt lat="45.16281" lon="5.85187">
        <ele>769.26</ele>
        <time>2020-02-08T16:38:07.000Z</time>
      </trkpt>
      <trkpt lat="45.16299" lon="5.85168">
        <ele>771.3</ele>
        <time>2020-02-08T16:38:12.000Z</time>
      </trkpt>
      <trkpt lat="45.16301" lon="5.85134">
        <ele>775.19</ele>
        <time>2020-02-08T16:38:17.000Z</time>
      </trkpt>
      <trkpt lat="45.16299" lon="5.85102">
        <ele>775.29</ele>
        <time>2020-02-08T16:38:22.000Z</time>
      </trkpt>
      <trkpt lat="45.16306" lon="5.85072">
        <ele>778.66</ele>
        <time>2020-02-08T16:38:27.000Z</time>
      </trkpt>
      <trkpt lat="45.16322" lon="5.85045">
        <ele>778.53</ele>
        <time>2020-02-08T16:38:32.000Z</time>
      </trkpt>
      <trkpt lat="45.16339" lon="5.85028">
        <ele>780.4</ele>
        <time>2020-02-08T16:38:37.000Z</time>
      </trkpt>
      <trkpt lat="45.16356" lon="5.8501">
        <ele>781.17</ele>
        <time>2020-02-08T16:38:42.000Z</time>
      </trkpt>
      <trkpt lat="45.16373" lon="5.84989">
        <ele>783.04</ele>
        <time>2020-02-08T16:38:47.000Z</time>
      </trkpt>
      <trkpt lat="45.16386" lon="5.84972">
        <ele>785.81</ele>
        <time>2020-02-08T16:38:52.000Z</time>
      </trkpt>
      <trkpt lat="45.16402" lon="5.84956">
        <ele>786.9</ele>
        <time>2020-02-08T16:38:57.000Z</time>
      </trkpt>
      <trkpt lat="45.16416" lon="5.84936">
        <ele>788.82</ele>
        <time>2020-02-08T16:39:02.000Z</time>
      </trkpt>
      <trkpt lat="45.16428" lon="5.84917">
        <ele>788.99</ele>
        <time>2020-02-08T16:39:07.000Z</time>
      </trkpt>
      <trkpt lat="45.16441" lon="5.84897">
        <ele>788.25</ele>
        <time>2020-02-08T16:39:12.000Z</time>
      </trkpt>
      <trkpt lat="45.16453" lon="5.8488">
        <ele>788.39</ele>
        <time>2020-02-08T16:39:17.000Z</time>
      </trkpt>
      <trkpt lat="45.16464" lon="5.84861">
        <ele>786.85</ele>
        <time>2020-02-08T16:39:22.000Z</time>
      </trkpt>
      <trkpt lat="45.16477" lon="5.84846">
        <ele>785.99</ele>
        <time>2020-02-08T16:39:27.000Z</time>
      </trkpt>
      <trkpt lat="45.16495" lon="5.84855">
        <ele>791.12</ele>
        <time>2020-02-08T16:39:32.000Z</time>
      </trkpt>
      <trkpt lat="45.16512" lon="5.84865">
        <ele>792.61</ele>
        <time>2020-02-08T16:39:37.000Z</time>
      </trkpt>
      <trkpt lat="45.16518" lon="5.84885">
        <ele>797.87</ele>
        <time>2020-02-08T16:39:42.000Z</time>
      </trkpt>
      <trkpt lat="45.16516" lon="5.849">
        <ele>798.95</ele>
        <time>2020-02-08T16:39:47.000Z</time>
      </trkpt>
      <trkpt lat="45.16524" lon="5.84907">
        <ele>799.2</ele>
        <time>2020-02-08T16:41:26.000Z</time>
      </trkpt>
      <trkpt lat="45.16525" lon="5.84933">
        <ele>800.09</ele>
        <time>2020-02-08T16:41:31.000Z</time>
      </trkpt>
      <trkpt lat="45.16527" lon="5.84962">
        <ele>798.4</ele>
        <time>2020-02-08T16:41:36.000Z</time>
      </trkpt>
      <trkpt lat="45.1653" lon="5.84987">
        <ele>801.75</ele>
        <time>2020-02-08T16:41:41.000Z</time>
      </trkpt>
      <trkpt lat="45.16535" lon="5.85015">
        <ele>801.2</ele>
        <time>2020-02-08T16:41:46.000Z</time>
      </trkpt>
      <trkpt lat="45.16538" lon="5.85056">
        <ele>800.4</ele>
        <time>2020-02-08T16:41:51.000Z</time>
      </trkpt>
      <trkpt lat="45.1655" lon="5.85099">
        <ele>802.03</ele>
        <time>2020-02-08T16:41:56.000Z</time>
      </trkpt>
      <trkpt lat="45.16572" lon="5.85141">
        <ele>803.11</ele>
        <time>2020-02-08T16:42:01.000Z</time>
      </trkpt>
      <trkpt lat="45.16595" lon="5.85187">
        <ele>800.35</ele>
        <time>2020-02-08T16:42:06.000Z</time>
      </trkpt>
      <trkpt lat="45.16625" lon="5.85236">
        <ele>796.27</ele>
        <time>2020-02-08T16:42:11.000Z</time>
      </trkpt>
      <trkpt lat="45.16654" lon="5.85292">
        <ele>792.35</ele>
        <time>2020-02-08T16:42:16.000Z</time>
      </trkpt>
      <trkpt lat="45.16679" lon="5.85351">
        <ele>786.17</ele>
        <time>2020-02-08T16:42:21.000Z</time>
      </trkpt>
      <trkpt lat="45.16698" lon="5.85413">
        <ele>787.41</ele>
        <time>2020-02-08T16:42:26.000Z</time>
      </trkpt>
      <trkpt lat="45.16712" lon="5.85474">
        <ele>789.4</ele>
        <time>2020-02-08T16:42:31.000Z</time>
      </trkpt>
      <trkpt lat="45.16713" lon="5.85525">
        <ele>783.87</ele>
        <time>2020-02-08T16:42:36.000Z</time>
      </trkpt>
      <trkpt lat="45.16722" lon="5.85566">
        <ele>781.81</ele>
        <time>2020-02-08T16:42:41.000Z</time>
      </trkpt>
      <trkpt lat="45.16733" lon="5.85606">
        <ele>780.95</ele>
        <time>2020-02-08T16:42:46.000Z</time>
      </trkpt>
      <trkpt lat="45.16741" lon="5.85648">
        <ele>781.64</ele>
        <time>2020-02-08T16:42:51.000Z</time>
      </trkpt>
      <trkpt lat="45.16745" lon="5.85693">
        <ele>780.92</ele>
        <time>2020-02-08T16:42:56.000Z</time>
      </trkpt>
      <trkpt lat="45.16746" lon="5.85738">
        <ele>785.54</ele>
        <time>2020-02-08T16:43:01.000Z</time>
      </trkpt>
      <trkpt lat="45.1674" lon="5.85781">
        <ele>789.67</ele>
        <time>2020-02-08T16:43:06.000Z</time>
      </trkpt>
      <trkpt lat="45.16744" lon="5.85817">
        <ele>790.33</ele>
        <time>2020-02-08T16:43:11.000Z</time>
      </trkpt>
      <trkpt lat="45.1675" lon="5.85851">
        <ele>792.43</ele>
        <time>2020-02-08T16:43:16.000Z</time>
      </trkpt>
      <trkpt lat="45.16757" lon="5.85883">
        <ele>793.58</ele>
        <time>2020-02-08T16:43:21.000Z</time>
      </trkpt>
      <trkpt lat="45.16765" lon="5.85918">
        <ele>794</ele>
        <time>2020-02-08T16:43:26.000Z</time>
      </trkpt>
      <trkpt lat="45.16774" lon="5.8595">
        <ele>792.71</ele>
        <time>2020-02-08T16:43:31.000Z</time>
      </trkpt>
      <trkpt lat="45.16776" lon="5.85986">
        <ele>792.78</ele>
        <time>2020-02-08T16:43:36.000Z</time>
      </trkpt>
      <trkpt lat="45.16778" lon="5.86023">
        <ele>794.25</ele>
        <time>2020-02-08T16:43:41.000Z</time>
      </trkpt>
      <trkpt lat="45.16773" lon="5.8606">
        <ele>794.24</ele>
        <time>2020-02-08T16:43:46.000Z</time>
      </trkpt>
      <trkpt lat="45.16767" lon="5.86095">
        <ele>792.33</ele>
        <time>2020-02-08T16:43:51.000Z</time>
      </trkpt>
      <trkpt lat="45.16766" lon="5.86129">
        <ele>793.89</ele>
        <time>2020-02-08T16:43:56.000Z</time>
      </trkpt>
      <trkpt lat="45.16758" lon="5.86164">
        <ele>794.46</ele>
        <time>2020-02-08T16:44:01.000Z</time>
      </trkpt>
      <trkpt lat="45.16755" lon="5.862">
        <ele>796.41</ele>
        <time>2020-02-08T16:44:06.000Z</time>
      </trkpt>
      <trkpt lat="45.16757" lon="5.86236">
        <ele>795.43</ele>
        <time>2020-02-08T16:44:11.000Z</time>
      </trkpt>
      <trkpt lat="45.16767" lon="5.8627">
        <ele>792.78</ele>
        <time>2020-02-08T16:44:16.000Z</time>
      </trkpt>
      <trkpt lat="45.16783" lon="5.86301">
        <ele>791.82</ele>
        <time>2020-02-08T16:44:21.000Z</time>
      </trkpt>
      <trkpt lat="45.16803" lon="5.8633">
        <ele>791.82</ele>
        <time>2020-02-08T16:44:26.000Z</time>
      </trkpt>
      <trkpt lat="45.16826" lon="5.86353">
        <ele>795.4</ele>
        <time>2020-02-08T16:44:31.000Z</time>
      </trkpt>
      <trkpt lat="45.16847" lon="5.8638">
        <ele>800.97</ele>
        <time>2020-02-08T16:44:36.000Z</time>
      </trkpt>
      <trkpt lat="45.16859" lon="5.86411">
        <ele>799.21</ele>
        <time>2020-02-08T16:44:41.000Z</time>
      </trkpt>
      <trkpt lat="45.16868" lon="5.86448">
        <ele>801.63</ele>
        <time>2020-02-08T16:44:46.000Z</time>
      </trkpt>
      <trkpt lat="45.16878" lon="5.86485">
        <ele>803.63</ele>
        <time>2020-02-08T16:44:51.000Z</time>
      </trkpt>
      <trkpt lat="45.16885" lon="5.8652">
        <ele>803.47</ele>
        <time>2020-02-08T16:44:56.000Z</time>
      </trkpt>
      <trkpt lat="45.16901" lon="5.86556">
        <ele>807.29</ele>
        <time>2020-02-08T16:45:01.000Z</time>
      </trkpt>
      <trkpt lat="45.16913" lon="5.86589">
        <ele>804.43</ele>
        <time>2020-02-08T16:45:06.000Z</time>
      </trkpt>
      <trkpt lat="45.16927" lon="5.86626">
        <ele>801.27</ele>
        <time>2020-02-08T16:45:11.000Z</time>
      </trkpt>
      <trkpt lat="45.16945" lon="5.86662">
        <ele>797.26</ele>
        <time>2020-02-08T16:45:16.000Z</time>
      </trkpt>
      <trkpt lat="45.16961" lon="5.86699">
        <ele>792.15</ele>
        <time>2020-02-08T16:45:21.000Z</time>
      </trkpt>
      <trkpt lat="45.16976" lon="5.86738">
        <ele>796.04</ele>
        <time>2020-02-08T16:45:26.000Z</time>
      </trkpt>
      <trkpt lat="45.16993" lon="5.86775">
        <ele>800.1</ele>
        <time>2020-02-08T16:45:31.000Z</time>
      </trkpt>
      <trkpt lat="45.1701" lon="5.86811">
        <ele>802.14</ele>
        <time>2020-02-08T16:45:36.000Z</time>
      </trkpt>
      <trkpt lat="45.17022" lon="5.86841">
        <ele>802.57</ele>
        <time>2020-02-08T16:45:41.000Z</time>
      </trkpt>
      <trkpt lat="45.17037" lon="5.86869">
        <ele>805.69</ele>
        <time>2020-02-08T16:45:46.000Z</time>
      </trkpt>
      <trkpt lat="45.17051" lon="5.86898">
        <ele>809.78</ele>
        <time>2020-02-08T16:45:51.000Z</time>
      </trkpt>
      <trkpt lat="45.17063" lon="5.86931">
        <ele>814.1</ele>
        <time>2020-02-08T16:45:56.000Z</time>
      </trkpt>
      <trkpt lat="45.17079" lon="5.86962">
        <ele>814.42</ele>
        <time>2020-02-08T16:46:01.000Z</time>
      </trkpt>
      <trkpt lat="45.1709" lon="5.86996">
        <ele>811.76</ele>
        <time>2020-02-08T16:46:06.000Z</time>
      </trkpt>
      <trkpt lat="45.17109" lon="5.87026">
        <ele>812.94</ele>
        <time>2020-02-08T16:46:11.000Z</time>
      </trkpt>
      <trkpt lat="45.17122" lon="5.87054">
        <ele>815.85</ele>
        <time>2020-02-08T16:46:16.000Z</time>
      </trkpt>
      <trkpt lat="45.17133" lon="5.87077">
        <ele>818.3</ele>
        <time>2020-02-08T16:46:21.000Z</time>
      </trkpt>
      <trkpt lat="45.17143" lon="5.87101">
        <ele>820.61</ele>
        <time>2020-02-08T16:46:26.000Z</time>
      </trkpt>
      <trkpt lat="45.1715" lon="5.87127">
        <ele>818.67</ele>
        <time>2020-02-08T16:46:31.000Z</time>
      </trkpt>
      <trkpt lat="45.17158" lon="5.87157">
        <ele>822.75</ele>
        <time>2020-02-08T16:46:36.000Z</time>
      </trkpt>
      <trkpt lat="45.17166" lon="5.87186">
        <ele>821.61</ele>
        <time>2020-02-08T16:46:41.000Z</time>
      </trkpt>
      <trkpt lat="45.1718" lon="5.87216">
        <ele>826.04</ele>
        <time>2020-02-08T16:46:46.000Z</time>
      </trkpt>
      <trkpt lat="45.17185" lon="5.87246">
        <ele>827.23</ele>
        <time>2020-02-08T16:46:51.000Z</time>
      </trkpt>
      <trkpt lat="45.17192" lon="5.87278">
        <ele>829.45</ele>
        <time>2020-02-08T16:46:56.000Z</time>
      </trkpt>
      <trkpt lat="45.17193" lon="5.87312">
        <ele>828.94</ele>
        <time>2020-02-08T16:47:01.000Z</time>
      </trkpt>
      <trkpt lat="45.17208" lon="5.87346">
        <ele>828.27</ele>
        <time>2020-02-08T16:47:06.000Z</time>
      </trkpt>
      <trkpt lat="45.17227" lon="5.87376">
        <ele>833.52</ele>
        <time>2020-02-08T16:47:11.000Z</time>
      </trkpt>
      <trkpt lat="45.17245" lon="5.87402">
        <ele>835.08</ele>
        <time>2020-02-08T16:47:16.000Z</time>
      </trkpt>
      <trkpt lat="45.17265" lon="5.87424">
        <ele>835.27</ele>
        <time>2020-02-08T16:47:21.000Z</time>
      </trkpt>
      <trkpt lat="45.17291" lon="5.87441">
        <ele>837.69</ele>
        <time>2020-02-08T16:47:26.000Z</time>
      </trkpt>
      <trkpt lat="45.17314" lon="5.87462">
        <ele>839.17</ele>
        <time>2020-02-08T16:47:31.000Z</time>
      </trkpt>
      <trkpt lat="45.17328" lon="5.8749">
        <ele>836.15</ele>
        <time>2020-02-08T16:47:36.000Z</time>
      </trkpt>
      <trkpt lat="45.17339" lon="5.87518">
        <ele>834.41</ele>
        <time>2020-02-08T16:47:41.000Z</time>
      </trkpt>
      <trkpt lat="45.17351" lon="5.87551">
        <ele>836.02</ele>
        <time>2020-02-08T16:47:46.000Z</time>
      </trkpt>
      <trkpt lat="45.17358" lon="5.87586">
        <ele>835.86</ele>
        <time>2020-02-08T16:47:51.000Z</time>
      </trkpt>
      <trkpt lat="45.17368" lon="5.87618">
        <ele>837.01</ele>
        <time>2020-02-08T16:47:56.000Z</time>
      </trkpt>
      <trkpt lat="45.1737" lon="5.87644">
        <ele>837.18</ele>
        <time>2020-02-08T16:48:01.000Z</time>
      </trkpt>
      <trkpt lat="45.17354" lon="5.87673">
        <ele>837.51</ele>
        <time>2020-02-08T16:48:06.000Z</time>
      </trkpt>
      <trkpt lat="45.17341" lon="5.87714">
        <ele>839.28</ele>
        <time>2020-02-08T16:48:11.000Z</time>
      </trkpt>
      <trkpt lat="45.1732" lon="5.87751">
        <ele>841.71</ele>
        <time>2020-02-08T16:48:16.000Z</time>
      </trkpt>
      <trkpt lat="45.17301" lon="5.8778">
        <ele>842.13</ele>
        <time>2020-02-08T16:48:21.000Z</time>
      </trkpt>
      <trkpt lat="45.17286" lon="5.87807">
        <ele>842.78</ele>
        <time>2020-02-08T16:48:26.000Z</time>
      </trkpt>
      <trkpt lat="45.17271" lon="5.87836">
        <ele>842.13</ele>
        <time>2020-02-08T16:48:31.000Z</time>
      </trkpt>
      <trkpt lat="45.17249" lon="5.87857">
        <ele>836.27</ele>
        <time>2020-02-08T16:48:36.000Z</time>
      </trkpt>
      <trkpt lat="45.1723" lon="5.87889">
        <ele>835.67</ele>
        <time>2020-02-08T16:48:41.000Z</time>
      </trkpt>
      <trkpt lat="45.17204" lon="5.8792">
        <ele>835.44</ele>
        <time>2020-02-08T16:48:46.000Z</time>
      </trkpt>
      <trkpt lat="45.1718" lon="5.8796">
        <ele>834.53</ele>
        <time>2020-02-08T16:48:51.000Z</time>
      </trkpt>
      <trkpt lat="45.17157" lon="5.88017">
        <ele>837.1</ele>
        <time>2020-02-08T16:48:56.000Z</time>
      </trkpt>
      <trkpt lat="45.17117" lon="5.88075">
        <ele>830.56</ele>
        <time>2020-02-08T16:49:01.000Z</time>
      </trkpt>
      <trkpt lat="45.17073" lon="5.8813">
        <ele>829.39</ele>
        <time>2020-02-08T16:49:06.000Z</time>
      </trkpt>
      <trkpt lat="45.17018" lon="5.8816">
        <ele>825.52</ele>
        <time>2020-02-08T16:49:11.000Z</time>
      </trkpt>
      <trkpt lat="45.16961" lon="5.88201">
        <ele>817.95</ele>
        <time>2020-02-08T16:49:16.000Z</time>
      </trkpt>
      <trkpt lat="45.16903" lon="5.88249">
        <ele>813.59</ele>
        <time>2020-02-08T16:49:21.000Z</time>
      </trkpt>
      <trkpt lat="45.16839" lon="5.8829">
        <ele>811.66</ele>
        <time>2020-02-08T16:49:26.000Z</time>
      </trkpt>
      <trkpt lat="45.16804" lon="5.88337">
        <ele>811.47</ele>
        <time>2020-02-08T16:49:31.000Z</time>
      </trkpt>
      <trkpt lat="45.1678" lon="5.88394">
        <ele>802.18</ele>
        <time>2020-02-08T16:49:36.000Z</time>
      </trkpt>
      <trkpt lat="45.16758" lon="5.88454">
        <ele>799.53</ele>
        <time>2020-02-08T16:49:41.000Z</time>
      </trkpt>
      <trkpt lat="45.1672" lon="5.8846">
        <ele>795.29</ele>
        <time>2020-02-08T16:49:46.000Z</time>
      </trkpt>
      <trkpt lat="45.16684" lon="5.88461">
        <ele>790.43</ele>
        <time>2020-02-08T16:49:51.000Z</time>
      </trkpt>
      <trkpt lat="45.1665" lon="5.88468">
        <ele>789.62</ele>
        <time>2020-02-08T16:49:56.000Z</time>
      </trkpt>
      <trkpt lat="45.16619" lon="5.88483">
        <ele>789.73</ele>
        <time>2020-02-08T16:50:01.000Z</time>
      </trkpt>
      <trkpt lat="45.16585" lon="5.88502">
        <ele>791.67</ele>
        <time>2020-02-08T16:50:06.000Z</time>
      </trkpt>
      <trkpt lat="45.16546" lon="5.88514">
        <ele>792.74</ele>
        <time>2020-02-08T16:50:11.000Z</time>
      </trkpt>
      <trkpt lat="45.16514" lon="5.88544">
        <ele>795.61</ele>
        <time>2020-02-08T16:50:16.000Z</time>
      </trkpt>
      <trkpt lat="45.16501" lon="5.88592">
        <ele>789.02</ele>
        <time>2020-02-08T16:50:21.000Z</time>
      </trkpt>
      <trkpt lat="45.16509" lon="5.88645">
        <ele>788.11</ele>
        <time>2020-02-08T16:50:26.000Z</time>
      </trkpt>
      <trkpt lat="45.16523" lon="5.88687">
        <ele>784.55</ele>
        <time>2020-02-08T16:50:31.000Z</time>
      </trkpt>
      <trkpt lat="45.16545" lon="5.88714">
        <ele>784.06</ele>
        <time>2020-02-08T16:50:36.000Z</time>
      </trkpt>
      <trkpt lat="45.16574" lon="5.88724">
        <ele>785.72</ele>
        <time>2020-02-08T16:50:41.000Z</time>
      </trkpt>
      <trkpt lat="45.16604" lon="5.88731">
        <ele>785.43</ele>
        <time>2020-02-08T16:50:46.000Z</time>
      </trkpt>
      <trkpt lat="45.16626" lon="5.88732">
        <ele>786.02</ele>
        <time>2020-02-08T16:50:51.000Z</time>
      </trkpt>
      <trkpt lat="45.16648" lon="5.88736">
        <ele>786.08</ele>
        <time>2020-02-08T16:50:56.000Z</time>
      </trkpt>
      <trkpt lat="45.16669" lon="5.8874">
        <ele>784.58</ele>
        <time>2020-02-08T16:51:01.000Z</time>
      </trkpt>
      <trkpt lat="45.16691" lon="5.88742">
        <ele>786.05</ele>
        <time>2020-02-08T16:51:06.000Z</time>
      </trkpt>
      <trkpt lat="45.16711" lon="5.88748">
        <ele>785.76</ele>
        <time>2020-02-08T16:51:11.000Z</time>
      </trkpt>
      <trkpt lat="45.16728" lon="5.8875">
        <ele>779.86</ele>
        <time>2020-02-08T16:51:16.000Z</time>
      </trkpt>
      <trkpt lat="45.16746" lon="5.8875">
        <ele>775.72</ele>
        <time>2020-02-08T16:51:21.000Z</time>
      </trkpt>
      <trkpt lat="45.16769" lon="5.88745">
        <ele>776.77</ele>
        <time>2020-02-08T16:51:26.000Z</time>
      </trkpt>
      <trkpt lat="45.16796" lon="5.88737">
        <ele>779.15</ele>
        <time>2020-02-08T16:51:31.000Z</time>
      </trkpt>
      <trkpt lat="45.16824" lon="5.88723">
        <ele>779.24</ele>
        <time>2020-02-08T16:51:36.000Z</time>
      </trkpt>
      <trkpt lat="45.1685" lon="5.88708">
        <ele>782.88</ele>
        <time>2020-02-08T16:51:41.000Z</time>
      </trkpt>
      <trkpt lat="45.16876" lon="5.88705">
        <ele>785.66</ele>
        <time>2020-02-08T16:51:46.000Z</time>
      </trkpt>
      <trkpt lat="45.16905" lon="5.88706">
        <ele>782.62</ele>
        <time>2020-02-08T16:51:51.000Z</time>
      </trkpt>
      <trkpt lat="45.16938" lon="5.88698">
        <ele>786.14</ele>
        <time>2020-02-08T16:51:56.000Z</time>
      </trkpt>
      <trkpt lat="45.1697" lon="5.88683">
        <ele>787.15</ele>
        <time>2020-02-08T16:52:01.000Z</time>
      </trkpt>
      <trkpt lat="45.17003" lon="5.88669">
        <ele>785.96</ele>
        <time>2020-02-08T16:52:06.000Z</time>
      </trkpt>
      <trkpt lat="45.17039" lon="5.88676">
        <ele>785.81</ele>
        <time>2020-02-08T16:52:11.000Z</time>
      </trkpt>
      <trkpt lat="45.17067" lon="5.88707">
        <ele>782.22</ele>
        <time>2020-02-08T16:52:16.000Z</time>
      </trkpt>
      <trkpt lat="45.17099" lon="5.8872">
        <ele>781.72</ele>
        <time>2020-02-08T16:52:21.000Z</time>
      </trkpt>
      <trkpt lat="45.17131" lon="5.88703">
        <ele>778.23</ele>
        <time>2020-02-08T16:52:26.000Z</time>
      </trkpt>
      <trkpt lat="45.1716" lon="5.88678">
        <ele>775.55</ele>
        <time>2020-02-08T16:52:31.000Z</time>
      </trkpt>
      <trkpt lat="45.17192" lon="5.88644">
        <ele>769.21</ele>
        <time>2020-02-08T16:52:36.000Z</time>
      </trkpt>
      <trkpt lat="45.17215" lon="5.8861">
        <ele>766.03</ele>
        <time>2020-02-08T16:52:41.000Z</time>
      </trkpt>
      <trkpt lat="45.17245" lon="5.88586">
        <ele>766.9</ele>
        <time>2020-02-08T16:52:46.000Z</time>
      </trkpt>
      <trkpt lat="45.17275" lon="5.88573">
        <ele>770.78</ele>
        <time>2020-02-08T16:52:51.000Z</time>
      </trkpt>
      <trkpt lat="45.17294" lon="5.88574">
        <ele>767.78</ele>
        <time>2020-02-08T16:52:56.000Z</time>
      </trkpt>
      <trkpt lat="45.17321" lon="5.88579">
        <ele>765.14</ele>
        <time>2020-02-08T16:53:01.000Z</time>
      </trkpt>
      <trkpt lat="45.17352" lon="5.88585">
        <ele>767.27</ele>
        <time>2020-02-08T16:53:06.000Z</time>
      </trkpt>
      <trkpt lat="45.17388" lon="5.88585">
        <ele>768.87</ele>
        <time>2020-02-08T16:53:11.000Z</time>
      </trkpt>
      <trkpt lat="45.17423" lon="5.88592">
        <ele>770.76</ele>
        <time>2020-02-08T16:53:16.000Z</time>
      </trkpt>
      <trkpt lat="45.17455" lon="5.88594">
        <ele>770.19</ele>
        <time>2020-02-08T16:53:21.000Z</time>
      </trkpt>
      <trkpt lat="45.17492" lon="5.88588">
        <ele>771.67</ele>
        <time>2020-02-08T16:53:26.000Z</time>
      </trkpt>
      <trkpt lat="45.17535" lon="5.88564">
        <ele>773.88</ele>
        <time>2020-02-08T16:53:31.000Z</time>
      </trkpt>
      <trkpt lat="45.17565" lon="5.8852">
        <ele>773.55</ele>
        <time>2020-02-08T16:53:36.000Z</time>
      </trkpt>
      <trkpt lat="45.17606" lon="5.88488">
        <ele>771.19</ele>
        <time>2020-02-08T16:53:41.000Z</time>
      </trkpt>
      <trkpt lat="45.17651" lon="5.8849">
        <ele>771.5</ele>
        <time>2020-02-08T16:53:46.000Z</time>
      </trkpt>
      <trkpt lat="45.17695" lon="5.88513">
        <ele>767.28</ele>
        <time>2020-02-08T16:53:51.000Z</time>
      </trkpt>
      <trkpt lat="45.1774" lon="5.88532">
        <ele>764.39</ele>
        <time>2020-02-08T16:53:56.000Z</time>
      </trkpt>
      <trkpt lat="45.1778" lon="5.88539">
        <ele>764.7</ele>
        <time>2020-02-08T16:54:01.000Z</time>
      </trkpt>
      <trkpt lat="45.17817" lon="5.88537">
        <ele>765.78</ele>
        <time>2020-02-08T16:54:06.000Z</time>
      </trkpt>
      <trkpt lat="45.17852" lon="5.88527">
        <ele>763.08</ele>
        <time>2020-02-08T16:54:11.000Z</time>
      </trkpt>
      <trkpt lat="45.17884" lon="5.8851">
        <ele>761.88</ele>
        <time>2020-02-08T16:54:16.000Z</time>
      </trkpt>
      <trkpt lat="45.17921" lon="5.88485">
        <ele>761.16</ele>
        <time>2020-02-08T16:54:21.000Z</time>
      </trkpt>
      <trkpt lat="45.17953" lon="5.88468">
        <ele>761.02</ele>
        <time>2020-02-08T16:54:26.000Z</time>
      </trkpt>
      <trkpt lat="45.17985" lon="5.88448">
        <ele>761.49</ele>
        <time>2020-02-08T16:54:31.000Z</time>
      </trkpt>
      <trkpt lat="45.18014" lon="5.88428">
        <ele>759.07</ele>
        <time>2020-02-08T16:54:36.000Z</time>
      </trkpt>
      <trkpt lat="45.18039" lon="5.88399">
        <ele>758.26</ele>
        <time>2020-02-08T16:54:41.000Z</time>
      </trkpt>
      <trkpt lat="45.18054" lon="5.88347">
        <ele>756.53</ele>
        <time>2020-02-08T16:54:46.000Z</time>
      </trkpt>
      <trkpt lat="45.18074" lon="5.88289">
        <ele>753.18</ele>
        <time>2020-02-08T16:54:51.000Z</time>
      </trkpt>
      <trkpt lat="45.18105" lon="5.88236">
        <ele>748.74</ele>
        <time>2020-02-08T16:54:56.000Z</time>
      </trkpt>
      <trkpt lat="45.18139" lon="5.88187">
        <ele>745.85</ele>
        <time>2020-02-08T16:55:01.000Z</time>
      </trkpt>
      <trkpt lat="45.1817" lon="5.8814">
        <ele>744.81</ele>
        <time>2020-02-08T16:55:06.000Z</time>
      </trkpt>
      <trkpt lat="45.18192" lon="5.88104">
        <ele>746.18</ele>
        <time>2020-02-08T16:55:11.000Z</time>
      </trkpt>
      <trkpt lat="45.18213" lon="5.88077">
        <ele>743.99</ele>
        <time>2020-02-08T16:55:16.000Z</time>
      </trkpt>
      <trkpt lat="45.18229" lon="5.88049">
        <ele>743.5</ele>
        <time>2020-02-08T16:55:21.000Z</time>
      </trkpt>
      <trkpt lat="45.1824" lon="5.88026">
        <ele>743.5</ele>
        <time>2020-02-08T16:55:26.000Z</time>
      </trkpt>
      <trkpt lat="45.18248" lon="5.88">
        <ele>745.16</ele>
        <time>2020-02-08T16:55:31.000Z</time>
      </trkpt>
      <trkpt lat="45.18258" lon="5.8795">
        <ele>743.57</ele>
        <time>2020-02-08T16:55:36.000Z</time>
      </trkpt>
      <trkpt lat="45.18251" lon="5.87883">
        <ele>742.99</ele>
        <time>2020-02-08T16:55:41.000Z</time>
      </trkpt>
      <trkpt lat="45.1827" lon="5.87806">
        <ele>738.95</ele>
        <time>2020-02-08T16:55:46.000Z</time>
      </trkpt>
      <trkpt lat="45.18285" lon="5.87734">
        <ele>733.85</ele>
        <time>2020-02-08T16:55:51.000Z</time>
      </trkpt>
      <trkpt lat="45.18295" lon="5.87693">
        <ele>727.47</ele>
        <time>2020-02-08T16:55:56.000Z</time>
      </trkpt>
      <trkpt lat="45.18296" lon="5.87673">
        <ele>722.79</ele>
        <time>2020-02-08T16:56:01.000Z</time>
      </trkpt>
      <trkpt lat="45.183" lon="5.87645">
        <ele>720.32</ele>
        <time>2020-02-08T16:56:06.000Z</time>
      </trkpt>
      <trkpt lat="45.18315" lon="5.87605">
        <ele>713.33</ele>
        <time>2020-02-08T16:56:11.000Z</time>
      </trkpt>
      <trkpt lat="45.18328" lon="5.87564">
        <ele>707.33</ele>
        <time>2020-02-08T16:56:16.000Z</time>
      </trkpt>
      <trkpt lat="45.18335" lon="5.87534">
        <ele>703.46</ele>
        <time>2020-02-08T16:56:21.000Z</time>
      </trkpt>
      <trkpt lat="45.18344" lon="5.87505">
        <ele>702.5</ele>
        <time>2020-02-08T16:56:26.000Z</time>
      </trkpt>
      <trkpt lat="45.18353" lon="5.87484">
        <ele>699.67</ele>
        <time>2020-02-08T16:56:31.000Z</time>
      </trkpt>
      <trkpt lat="45.18357" lon="5.87468">
        <ele>697.86</ele>
        <time>2020-02-08T16:56:41.000Z</time>
      </trkpt>
      <trkpt lat="45.18368" lon="5.87441">
        <ele>696.13</ele>
        <time>2020-02-08T16:56:46.000Z</time>
      </trkpt>
      <trkpt lat="45.18376" lon="5.87412">
        <ele>693</ele>
        <time>2020-02-08T16:56:51.000Z</time>
      </trkpt>
      <trkpt lat="45.18384" lon="5.87392">
        <ele>690.69</ele>
        <time>2020-02-08T16:56:56.000Z</time>
      </trkpt>
      <trkpt lat="45.18378" lon="5.87378">
        <ele>689.71</ele>
        <time>2020-02-08T16:57:01.000Z</time>
      </trkpt>
      <trkpt lat="45.18378" lon="5.87379">
        <ele>688.08</ele>
        <time>2020-02-08T16:59:14.000Z</time>
      </trkpt>
    </trkseg>
  </trk>
</gpx>